Home > Products > Valid Products > OSO

000
SXUS55 KMSO 290503
OSOMSO
MONTANA AWOS SUMMARY
NATIONAL WEATHER SERVICE MISSOULA MT
1103 PM MDT FRI NOV 28 2014

Montana AWOS Reports

PLAINS      |KS34 290455Z AUTO VRB04KT 15SM 07/02 A2932 RMK AO1 T00720017
LAUREL      |K6S8 290455Z AUTO 23013G17KT 40SM 11/M07 A2941 RMK AO1 T01061071
TWIN BRIDGES|K7S1 290455Z AUTO 08005KT 40SM 06/M08 A2953 RMK AO1 T00611082






000
SXUS55 KMSO 290443
OSOMSO
MONTANA AWOS SUMMARY
NATIONAL WEATHER SERVICE MISSOULA MT
1043 PM MDT FRI NOV 28 2014

Montana AWOS Reports

LAUREL      |K6S8 290435Z AUTO 23012G20KT 40SM 11/M07 A2941 RMK AO1 T01111071






000
SXUS55 KMSO 290423
OSOMSO
MONTANA AWOS SUMMARY
NATIONAL WEATHER SERVICE MISSOULA MT
1022 PM MDT FRI NOV 28 2014

Montana AWOS Reports

LAUREL      |K6S8 290415Z AUTO 22010G15KT 40SM 09/M07 A2941 RMK AO1 T00941071






000
SXUS55 KMSO 290413
OSOMSO
MONTANA AWOS SUMMARY
NATIONAL WEATHER SERVICE MISSOULA MT
1013 PM MDT FRI NOV 28 2014

Montana AWOS Reports

MALTA       |KM75 290355Z AUTO 29010G14KT 25SM M11/M16 A2958 RMK AO1 T11101160






000
SXUS55 KMSO 290403
OSOMSO
MONTANA AWOS SUMMARY
NATIONAL WEATHER SERVICE MISSOULA MT
1003 PM MDT FRI NOV 28 2014

Montana AWOS Reports

LAUREL      |K6S8 290355Z AUTO 22004KT 40SM 08/M08 A2943 RMK AO1 T00781077
PLAINS      |KS34 290355Z AUTO 00000KT 25SM 07/01 A2935 RMK AO1 T00670011
TWIN BRIDGES|K7S1 290355Z AUTO 10006KT 40SM 06/M07 A2955 RMK AO1 T00611071






000
SXUS55 KMSO 290403
OSOMSO
MONTANA AWOS SUMMARY
NATIONAL WEATHER SERVICE MISSOULA MT
1003 PM MDT FRI NOV 28 2014

Montana AWOS Reports

LAUREL      |K6S8 290355Z AUTO 22004KT 40SM 08/M08 A2943 RMK AO1 T00781077
PLAINS      |KS34 290355Z AUTO 00000KT 25SM 07/01 A2935 RMK AO1 T00670011
TWIN BRIDGES|K7S1 290355Z AUTO 10006KT 40SM 06/M07 A2955 RMK AO1 T00611071






000
SXUS55 KMSO 290353
OSOMSO
MONTANA AWOS SUMMARY
NATIONAL WEATHER SERVICE MISSOULA MT
953 PM MDT FRI NOV 28 2014

Montana AWOS Reports

MALTA       |KM75 290255Z AUTO 31013KT 40SM M11/M16 A2957 RMK AO1 T11051155






000
SXUS55 KMSO 290353
OSOMSO
MONTANA AWOS SUMMARY
NATIONAL WEATHER SERVICE MISSOULA MT
953 PM MDT FRI NOV 28 2014

Montana AWOS Reports

MALTA       |KM75 290255Z AUTO 31013KT 40SM M11/M16 A2957 RMK AO1 T11051155






000
SXUS55 KMSO 290343
OSOMSO
MONTANA AWOS SUMMARY
NATIONAL WEATHER SERVICE MISSOULA MT
943 PM MDT FRI NOV 28 2014

Montana AWOS Reports

LAUREL      |K6S8 290335Z AUTO 00000KT 40SM 08/M08 A2943 RMK AO1 T00781077






000
SXUS55 KMSO 290343
OSOMSO
MONTANA AWOS SUMMARY
NATIONAL WEATHER SERVICE MISSOULA MT
943 PM MDT FRI NOV 28 2014

Montana AWOS Reports

LAUREL      |K6S8 290335Z AUTO 00000KT 40SM 08/M08 A2943 RMK AO1 T00781077






000
SXUS55 KMSO 290323
OSOMSO
MONTANA AWOS SUMMARY
NATIONAL WEATHER SERVICE MISSOULA MT
923 PM MDT FRI NOV 28 2014

Montana AWOS Reports

LAUREL      |K6S8 290315Z AUTO 00000KT 40SM 09/M08 A2944 RMK AO1 T00891077






000
SXUS55 KMSO 290323
OSOMSO
MONTANA AWOS SUMMARY
NATIONAL WEATHER SERVICE MISSOULA MT
923 PM MDT FRI NOV 28 2014

Montana AWOS Reports

LAUREL      |K6S8 290315Z AUTO 00000KT 40SM 09/M08 A2944 RMK AO1 T00891077






000
SXUS55 KMSO 290303
OSOMSO
MONTANA AWOS SUMMARY
NATIONAL WEATHER SERVICE MISSOULA MT
903 PM MDT FRI NOV 28 2014

Montana AWOS Reports

LAUREL      |K6S8 290255Z AUTO 00000KT 40SM 08/M07 A2945 RMK AO1 T00831071
TWIN BRIDGES|K7S1 290255Z AUTO 00000KT 40SM 08/M08 A2958 RMK AO1 T00781082






000
SXUS55 KMSO 290303
OSOMSO
MONTANA AWOS SUMMARY
NATIONAL WEATHER SERVICE MISSOULA MT
903 PM MDT FRI NOV 28 2014

Montana AWOS Reports

LAUREL      |K6S8 290255Z AUTO 00000KT 40SM 08/M07 A2945 RMK AO1 T00831071
TWIN BRIDGES|K7S1 290255Z AUTO 00000KT 40SM 08/M08 A2958 RMK AO1 T00781082






000
SXUS55 KMSO 290243
OSOMSO
MONTANA AWOS SUMMARY
NATIONAL WEATHER SERVICE MISSOULA MT
843 PM MDT FRI NOV 28 2014

Montana AWOS Reports

LAUREL      |K6S8 290235Z AUTO 22005KT 40SM 07/M07 A2944 RMK AO1 T00721071






000
SXUS55 KMSO 290243
OSOMSO
MONTANA AWOS SUMMARY
NATIONAL WEATHER SERVICE MISSOULA MT
843 PM MDT FRI NOV 28 2014

Montana AWOS Reports

LAUREL      |K6S8 290235Z AUTO 22005KT 40SM 07/M07 A2944 RMK AO1 T00721071






000
SXUS55 KMSO 290223
OSOMSO
MONTANA AWOS SUMMARY
NATIONAL WEATHER SERVICE MISSOULA MT
823 PM MDT FRI NOV 28 2014

Montana AWOS Reports

LAUREL      |K6S8 290215Z AUTO 00000KT 40SM 07/M07 A2946 RMK AO1 T00671066






000
SXUS55 KMSO 290203
OSOMSO
MONTANA AWOS SUMMARY
NATIONAL WEATHER SERVICE MISSOULA MT
803 PM MDT FRI NOV 28 2014

Montana AWOS Reports

PLAINS      |KS34 290155Z AUTO 00000KT 15SM 08/02 A2937 RMK AO1 T00780022
LAUREL      |K6S8 290155Z AUTO 00000KT 40SM 07/M06 A2948 RMK AO1 T00721060
MALTA       |KM75 290155Z AUTO 33013G18KT 40SM M09/M14 A2955 RMK AO1 T10881143
TWIN BRIDGES|K7S1 290155Z AUTO 10006KT 40SM 08/M11 A2959 RMK AO1 T00781105






000
SXUS55 KMSO 290203
OSOMSO
MONTANA AWOS SUMMARY
NATIONAL WEATHER SERVICE MISSOULA MT
803 PM MDT FRI NOV 28 2014

Montana AWOS Reports

PLAINS      |KS34 290155Z AUTO 00000KT 15SM 08/02 A2937 RMK AO1 T00780022
LAUREL      |K6S8 290155Z AUTO 00000KT 40SM 07/M06 A2948 RMK AO1 T00721060
MALTA       |KM75 290155Z AUTO 33013G18KT 40SM M09/M14 A2955 RMK AO1 T10881143
TWIN BRIDGES|K7S1 290155Z AUTO 10006KT 40SM 08/M11 A2959 RMK AO1 T00781105






000
SXUS55 KMSO 290144
OSOMSO
MONTANA AWOS SUMMARY
NATIONAL WEATHER SERVICE MISSOULA MT
743 PM MDT FRI NOV 28 2014

Montana AWOS Reports

LAUREL      |K6S8 290135Z AUTO 00000KT 40SM 07/M06 A2949 RMK AO1 T00721060






000
SXUS55 KMSO 290123
OSOMSO
MONTANA AWOS SUMMARY
NATIONAL WEATHER SERVICE MISSOULA MT
723 PM MDT FRI NOV 28 2014

Montana AWOS Reports

LAUREL      |K6S8 290115Z AUTO 00000KT 40SM 09/M05 A2949 RMK AO1 T00891049






000
SXUS55 KMSO 290103
OSOMSO
MONTANA AWOS SUMMARY
NATIONAL WEATHER SERVICE MISSOULA MT
703 PM MDT FRI NOV 28 2014

Montana AWOS Reports

LAUREL      |K6S8 290055Z AUTO 00000KT 40SM 09/M05 A2951 RMK AO1 T00941049
MALTA       |KM75 290055Z AUTO 33011G18KT 40SM M06/M11 A2953 RMK AO1 T10551105
PLAINS      |KS34 290055Z AUTO 00000KT 40SM 07/02 A2938 RMK AO1 T00720022
TWIN BRIDGES|K7S1 290055Z AUTO 19011G22KT 40SM 11/M11 A2960 RMK AO1 T01061110






000
SXUS55 KMSO 290043
OSOMSO
MONTANA AWOS SUMMARY
NATIONAL WEATHER SERVICE MISSOULA MT
643 PM MDT FRI NOV 28 2014

Montana AWOS Reports

LAUREL      |K6S8 290035Z AUTO 00000KT 40SM 09/M04 A2951 RMK AO1 T00891043






000
SXUS55 KMSO 290023
OSOMSO
MONTANA AWOS SUMMARY
NATIONAL WEATHER SERVICE MISSOULA MT
622 PM MDT FRI NOV 28 2014

Montana AWOS Reports

LAUREL      |K6S8 290015Z AUTO 00000KT 40SM 10/M03 A2952 RMK AO1 T01001027






000
SXUS55 KMSO 290013
OSOMSO
MONTANA AWOS SUMMARY
NATIONAL WEATHER SERVICE MISSOULA MT
613 PM MDT FRI NOV 28 2014

Montana AWOS Reports

LAUREL      |K6S8 282355Z AUTO 00000KT 40SM 10/M03 A2953 RMK AO1 T01001032
MALTA       |KM75 282355Z AUTO 27015G20KT 40SM M04/M08 A2950 RMK AO1 T10431082
TWIN BRIDGES|K7S1 282355Z AUTO 22004KT 40SM 11/M08 A2961 RMK AO1 T01061077






000
SXUS55 KMSO 290004
OSOMSO
MONTANA AWOS SUMMARY
NATIONAL WEATHER SERVICE MISSOULA MT
603 PM MDT FRI NOV 28 2014

Montana AWOS Reports

PLAINS      |KS34 282355Z AUTO 00000KT 10SM 08/03 A2943 RMK AO1 T00780028






000
SXUS55 KMSO 282353
OSOMSO
MONTANA AWOS SUMMARY
NATIONAL WEATHER SERVICE MISSOULA MT
553 PM MDT FRI NOV 28 2014

Montana AWOS Reports

LAUREL      |K6S8 282335Z AUTO 00000KT 40SM 12/M03 A2954 RMK AO1 T01171027






000
SXUS55 KMSO 282324
OSOMSO
MONTANA AWOS SUMMARY
NATIONAL WEATHER SERVICE MISSOULA MT
523 PM MDT FRI NOV 28 2014

Montana AWOS Reports

LAUREL      |K6S8 282315Z AUTO 00000KT 40SM 12/M03 A2956 RMK AO1 T01221032






000
SXUS55 KMSO 282313
OSOMSO
MONTANA AWOS SUMMARY
NATIONAL WEATHER SERVICE MISSOULA MT
513 PM MDT FRI NOV 28 2014

Montana AWOS Reports

PLAINS      |KS34 282255Z AUTO VRB06KT 10SM 08/03 A2946 RMK AO1 T00830028
TWIN BRIDGES|K7S1 282255Z AUTO 18015G22KT 40SM 13/M06 A2961 RMK AO1 T01281060
MALTA       |KM75 282255Z AUTO 24015G20KT 40SM M03/M06 A2949 RMK AO1 T10271060






000
SXUS55 KMSO 282303
OSOMSO
MONTANA AWOS SUMMARY
NATIONAL WEATHER SERVICE MISSOULA MT
503 PM MDT FRI NOV 28 2014

Montana AWOS Reports

LAUREL      |K6S8 282255Z AUTO 00000KT 40SM 13/M03 A2956 RMK AO1 T01281027






000
SXUS55 KMSO 282243
OSOMSO
MONTANA AWOS SUMMARY
NATIONAL WEATHER SERVICE MISSOULA MT
443 PM MDT FRI NOV 28 2014

Montana AWOS Reports

LAUREL      |K6S8 282235Z AUTO 00000KT 40SM 13/M03 A2955 RMK AO1 T01281027






000
SXUS55 KMSO 282223
OSOMSO
MONTANA AWOS SUMMARY
NATIONAL WEATHER SERVICE MISSOULA MT
423 PM MDT FRI NOV 28 2014

Montana AWOS Reports

LAUREL      |K6S8 282215Z AUTO 21010G19KT 40SM 13/M03 A2954 RMK AO1 T01281032






000
SXUS55 KMSO 282203
OSOMSO
MONTANA AWOS SUMMARY
NATIONAL WEATHER SERVICE MISSOULA MT
403 PM MDT FRI NOV 28 2014

Montana AWOS Reports

LAUREL      |K6S8 282155Z AUTO 21013G23KT 40SM 13/M02 A2955 RMK AO1 T01331021
TWIN BRIDGES|K7S1 282155Z AUTO 16004KT 40SM 10/M03 A2962 RMK AO1 T01001027
PLAINS      |KS34 282155Z AUTO 00000KT 10SM 09/03 A2948 RMK AO1 T00890028






000
SXUS55 KMSO 282153
OSOMSO
MONTANA AWOS SUMMARY
NATIONAL WEATHER SERVICE MISSOULA MT
353 PM MDT FRI NOV 28 2014

Montana AWOS Reports

LAUREL      |K6S8 282135Z AUTO 22011G17KT 10SM 13/M02 A2955 RMK AO1 T01331021






000
SXUS55 KMSO 282123
OSOMSO
MONTANA AWOS SUMMARY
NATIONAL WEATHER SERVICE MISSOULA MT
323 PM MDT FRI NOV 28 2014

Montana AWOS Reports

LAUREL      |K6S8 282115Z AUTO 21015G22KT 2 1/2SM 14/M02 A2954 RMK AO1 T01441016






000
SXUS55 KMSO 282103
OSOMSO
MONTANA AWOS SUMMARY
NATIONAL WEATHER SERVICE MISSOULA MT
302 PM MDT FRI NOV 28 2014

Montana AWOS Reports

LAUREL      |K6S8 282055Z AUTO 20018G23KT 2 1/2SM 14/M03 A2956 RMK AO1 T01441027
PLAINS      |KS34 282055Z AUTO 22005KT 25SM 10/03 A2950 RMK AO1 T01000033
TWIN BRIDGES|K7S1 282055Z AUTO 25004KT 40SM 11/M04 A2965 RMK AO1 T01061038
MALTA       |KM75 282055Z AUTO 27013G20KT 40SM 02/M02 A2945 RMK AO1 T00171021






000
SXUS55 KMSO 282053
OSOMSO
MONTANA AWOS SUMMARY
NATIONAL WEATHER SERVICE MISSOULA MT
252 PM MDT FRI NOV 28 2014

Montana AWOS Reports

LAUREL      |K6S8 282035Z AUTO 20011G15KT 25SM 16/M02 A2957 RMK AO1 T01561021






000
SXUS55 KMSO 282023
OSOMSO
MONTANA AWOS SUMMARY
NATIONAL WEATHER SERVICE MISSOULA MT
223 PM MDT FRI NOV 28 2014

Montana AWOS Reports

LAUREL      |K6S8 282015Z AUTO 00000KT 40SM 16/M02 A2957 RMK AO1 T01561016






000
SXUS55 KMSO 282003
OSOMSO
MONTANA AWOS SUMMARY
NATIONAL WEATHER SERVICE MISSOULA MT
203 PM MDT FRI NOV 28 2014

Montana AWOS Reports

LAUREL      |K6S8 281955Z AUTO 00000KT 40SM 16/M02 A2957 RMK AO1 T01561021
MALTA       |KM75 281955Z AUTO 00000KT 25SM 02/M02 A2941 RMK AO1 T00221016
TWIN BRIDGES|K7S1 281955Z AUTO 16007KT 40SM 11/M03 A2968 RMK AO1 T01111032
PLAINS      |KS34 281955Z AUTO 20007KT 25SM 11/04 A2951 RMK AO1 T01060039






000
SXUS55 KMSO 281953
OSOMSO
MONTANA AWOS SUMMARY
NATIONAL WEATHER SERVICE MISSOULA MT
152 PM MDT FRI NOV 28 2014

Montana AWOS Reports

LAUREL      |K6S8 281935Z AUTO 21007KT 40SM 16/M03 A2958 RMK AO1 T01561032






000
SXUS55 KMSO 281923
OSOMSO
MONTANA AWOS SUMMARY
NATIONAL WEATHER SERVICE MISSOULA MT
123 PM MDT FRI NOV 28 2014

Montana AWOS Reports

LAUREL      |K6S8 281915Z AUTO 00000KT 40SM 13/M01 A2959 RMK AO1 T01331010






000
SXUS55 KMSO 281913
OSOMSO
MONTANA AWOS SUMMARY
NATIONAL WEATHER SERVICE MISSOULA MT
113 PM MDT FRI NOV 28 2014

Montana AWOS Reports

LAUREL      |K6S8 281855Z AUTO 00000KT 2 1/2SM 13/M01 A2960 RMK AO1 T01281010
MALTA       |KM75 281855Z AUTO 04006KT 25SM 02/M02 A2942 RMK AO1 T00171021
TWIN BRIDGES|K7S1 281855Z AUTO 00000KT 40SM 09/M04 A2973 RMK AO1 T00941043






000
SXUS55 KMSO 281903
OSOMSO
MONTANA AWOS SUMMARY
NATIONAL WEATHER SERVICE MISSOULA MT
103 PM MDT FRI NOV 28 2014

Montana AWOS Reports

PLAINS      |KS34 281855Z AUTO 21005KT 7SM 11/04 A2954 RMK AO1 T01060044






000
SXUS55 KMSO 281853
OSOMSO
MONTANA AWOS SUMMARY
NATIONAL WEATHER SERVICE MISSOULA MT
1253 PM MDT FRI NOV 28 2014

Montana AWOS Reports

LAUREL      |K6S8 281835Z AUTO 00000KT 1 3/4SM 11/M02 A2960 RMK AO1 T01111021






000
SXUS55 KMSO 281823
OSOMSO
MONTANA AWOS SUMMARY
NATIONAL WEATHER SERVICE MISSOULA MT
1223 PM MDT FRI NOV 28 2014

Montana AWOS Reports

LAUREL      |K6S8 281815Z AUTO 00000KT 40SM 11/M03 A2962 RMK AO1 T01111032






000
SXUS55 KMSO 281803
OSOMSO
MONTANA AWOS SUMMARY
NATIONAL WEATHER SERVICE MISSOULA MT
1203 PM MDT FRI NOV 28 2014

Montana AWOS Reports

LAUREL      |K6S8 281755Z AUTO 00000KT 40SM 11/M03 A2962 RMK AO1 T01111027
TWIN BRIDGES|K7S1 281755Z AUTO 18006KT 40SM 11/M05 A2976 RMK AO1 T01061049
MALTA       |KM75 281755Z AUTO 04007KT 15SM M01/M04 A2945 RMK AO1 T10101038






000
SXUS55 KMSO 281743
OSOMSO
MONTANA AWOS SUMMARY
NATIONAL WEATHER SERVICE MISSOULA MT
1142 AM MDT FRI NOV 28 2014

Montana AWOS Reports

LAUREL      |K6S8 281735Z AUTO 00000KT 40SM 11/M03 A2963 RMK AO1 T01111027






000
SXUS55 KMSO 281733
OSOMSO
MONTANA AWOS SUMMARY
NATIONAL WEATHER SERVICE MISSOULA MT
1133 AM MDT FRI NOV 28 2014

Montana AWOS Reports

LAUREL      |K6S8 281715Z AUTO 00000KT 40SM 11/M03 A2963 RMK AO1 T01111027






000
SXUS55 KMSO 281713
OSOMSO
MONTANA AWOS SUMMARY
NATIONAL WEATHER SERVICE MISSOULA MT
1113 AM MDT FRI NOV 28 2014

Montana AWOS Reports

MALTA       |KM75 281655Z AUTO 04006KT 10SM M03/M05 A2948 RMK AO1 T10271049






000
SXUS55 KMSO 281703
OSOMSO
MONTANA AWOS SUMMARY
NATIONAL WEATHER SERVICE MISSOULA MT
1103 AM MDT FRI NOV 28 2014

Montana AWOS Reports

LAUREL      |K6S8 281655Z AUTO 21005KT 40SM 10/M04 A2964 RMK AO1 T01001038
PLAINS      |KS34 281655Z AUTO 22006KT 25SM 11/03 A2958 RMK AO1 T01060033
TWIN BRIDGES|K7S1 281655Z AUTO 08010KT 40SM 09/M04 A2976 RMK AO1 T00941043






000
SXUS55 KMSO 281643
OSOMSO
MONTANA AWOS SUMMARY
NATIONAL WEATHER SERVICE MISSOULA MT
1043 AM MDT FRI NOV 28 2014

Montana AWOS Reports

LAUREL      |K6S8 281635Z AUTO 00000KT 40SM 09/M04 A2964 RMK AO1 T00941038






000
SXUS55 KMSO 281624
OSOMSO
MONTANA AWOS SUMMARY
NATIONAL WEATHER SERVICE MISSOULA MT
1023 AM MDT FRI NOV 28 2014

Montana AWOS Reports

LAUREL      |K6S8 281615Z AUTO 00000KT 40SM 09/M04 A2965 RMK AO1 T00891043






000
SXUS55 KMSO 281613
OSOMSO
MONTANA AWOS SUMMARY
NATIONAL WEATHER SERVICE MISSOULA MT
1013 AM MDT FRI NOV 28 2014

Montana AWOS Reports

MALTA       |KM75 281555Z AUTO 00000KT 7SM M05/M07 A2950 RMK AO1 T10491071
PLAINS      |KS34 281555Z AUTO 00000KT 25SM 08/02 A2960 RMK AO1 T00780022
TWIN BRIDGES|K7S1 281555Z AUTO 14004KT 40SM 09/M04 A2978 RMK AO1 T00891038






000
SXUS55 KMSO 281604
OSOMSO
MONTANA AWOS SUMMARY
NATIONAL WEATHER SERVICE MISSOULA MT
1003 AM MDT FRI NOV 28 2014

Montana AWOS Reports

LAUREL      |K6S8 281555Z AUTO 00000KT 40SM 08/M05 A2966 RMK AO1 T00831049






000
SXUS55 KMSO 281543
OSOMSO
MONTANA AWOS SUMMARY
NATIONAL WEATHER SERVICE MISSOULA MT
943 AM MDT FRI NOV 28 2014

Montana AWOS Reports

LAUREL      |K6S8 281535Z AUTO 00000KT 40SM 07/M06 A2965 RMK AO1 T00721055






000
SXUS55 KMSO 281523
OSOMSO
MONTANA AWOS SUMMARY
NATIONAL WEATHER SERVICE MISSOULA MT
922 AM MDT FRI NOV 28 2014

Montana AWOS Reports

LAUREL      |K6S8 281515Z AUTO 00000KT 40SM 06/M06 A2965 RMK AO1 T00611055






000
SXUS55 KMSO 281513
OSOMSO
MONTANA AWOS SUMMARY
NATIONAL WEATHER SERVICE MISSOULA MT
913 AM MDT FRI NOV 28 2014

Montana AWOS Reports

PLAINS      |KS34 281455Z AUTO 00000KT 40SM 09/03 A2961 RMK AO1 T00890028
MALTA       |KM75 281455Z AUTO 00000KT 1 1/4SM M05/M07 A2952 RMK AO1 T10491071






000
SXUS55 KMSO 281503
OSOMSO
MONTANA AWOS SUMMARY
NATIONAL WEATHER SERVICE MISSOULA MT
903 AM MDT FRI NOV 28 2014

Montana AWOS Reports

LAUREL      |K6S8 281455Z AUTO 00000KT 40SM 06/M06 A2965 RMK AO1 T00561055
TWIN BRIDGES|K7S1 281455Z AUTO 10007KT 40SM 08/M04 A2977 RMK AO1 T00831038






000
SXUS55 KMSO 281443
OSOMSO
MONTANA AWOS SUMMARY
NATIONAL WEATHER SERVICE MISSOULA MT
843 AM MDT FRI NOV 28 2014

Montana AWOS Reports

LAUREL      |K6S8 281435Z AUTO 00000KT 40SM 06/M06 A2965 RMK AO1 T00561055






000
SXUS55 KMSO 281423
OSOMSO
MONTANA AWOS SUMMARY
NATIONAL WEATHER SERVICE MISSOULA MT
823 AM MDT FRI NOV 28 2014

Montana AWOS Reports

LAUREL      |K6S8 281415Z AUTO 00000KT 40SM 07/M05 A2965 RMK AO1 T00671049






000
SXUS55 KMSO 281413
OSOMSO
MONTANA AWOS SUMMARY
NATIONAL WEATHER SERVICE MISSOULA MT
813 AM MDT FRI NOV 28 2014

Montana AWOS Reports

MALTA       |KM75 281355Z AUTO 04005KT 1SM M04/M07 A2954 RMK AO1 T10431066






000
SXUS55 KMSO 281403
OSOMSO
MONTANA AWOS SUMMARY
NATIONAL WEATHER SERVICE MISSOULA MT
803 AM MDT FRI NOV 28 2014

Montana AWOS Reports

LAUREL      |K6S8 281355Z AUTO 00000KT 40SM 07/M05 A2966 RMK AO1 T00671049
SCOBEY      |K9S2 281355Z AUTO 10007KT 5SM M10/M14 A2962 RMK AO1 T10991138
PLAINS      |KS34 281355Z AUTO 19005KT 15SM 09/03 A2963 RMK AO1 T00940033
TWIN BRIDGES|K7S1 281355Z AUTO 10004KT 40SM 08/M02 A2977 RMK AO1 T00831021






000
SXUS55 KMSO 281343
OSOMSO
MONTANA AWOS SUMMARY
NATIONAL WEATHER SERVICE MISSOULA MT
743 AM MDT FRI NOV 28 2014

Montana AWOS Reports

LAUREL      |K6S8 281335Z AUTO 00000KT 40SM 06/M06 A2966 RMK AO1 T00561060






000
SXUS55 KMSO 281323
OSOMSO
MONTANA AWOS SUMMARY
NATIONAL WEATHER SERVICE MISSOULA MT
723 AM MDT FRI NOV 28 2014

Montana AWOS Reports

LAUREL      |K6S8 281315Z AUTO 00000KT 40SM 06/M06 A2967 RMK AO1 T00561055






000
SXUS55 KMSO 281304
OSOMSO
MONTANA AWOS SUMMARY
NATIONAL WEATHER SERVICE MISSOULA MT
703 AM MDT FRI NOV 28 2014

Montana AWOS Reports

SCOBEY      |K9S2 281255Z AUTO 08005KT 7SM M09/M13 A2964 RMK AO1 T10931132
LAUREL      |K6S8 281255Z AUTO 00000KT 40SM 06/M05 A2967 RMK AO1 T00611049
TWIN BRIDGES|K7S1 281255Z AUTO 19015KT 40SM 09/M02 A2979 RMK AO1 T00891021
PLAINS      |KS34 281255Z AUTO 22007KT 15SM 09/03 A2964 RMK AO1 T00940028
MALTA       |KM75 281255Z AUTO 04005KT 1/2SM M04/M06 A2956 RMK AO1 T10381060






000
SXUS55 KMSO 281243
OSOMSO
MONTANA AWOS SUMMARY
NATIONAL WEATHER SERVICE MISSOULA MT
643 AM MDT FRI NOV 28 2014

Montana AWOS Reports

LAUREL      |K6S8 281235Z AUTO 00000KT 40SM 06/M06 A2968 RMK AO1 T00611055






000
SXUS55 KMSO 281233
OSOMSO
MONTANA AWOS SUMMARY
NATIONAL WEATHER SERVICE MISSOULA MT
632 AM MDT FRI NOV 28 2014

Montana AWOS Reports

PLAINS      |KS34 281155Z AUTO 20009G13KT 40SM 10/03 A2966 RMK AO1 T01000028






000
SXUS55 KMSO 281223
OSOMSO
MONTANA AWOS SUMMARY
NATIONAL WEATHER SERVICE MISSOULA MT
622 AM MDT FRI NOV 28 2014

Montana AWOS Reports

LAUREL      |K6S8 281215Z AUTO 00000KT 40SM 07/M05 A2969 RMK AO1 T00671049






000
SXUS55 KMSO 281213
OSOMSO
MONTANA AWOS SUMMARY
NATIONAL WEATHER SERVICE MISSOULA MT
613 AM MDT FRI NOV 28 2014

Montana AWOS Reports

MALTA       |KM75 280855Z AUTO 00000KT 1SM M03/M06 A2963 RMK AO1 T10321055
MALTA       |KM75 280955Z AUTO 00000KT 1/2SM M04/M06 A2963 RMK AO1 T10381060
MALTA       |KM75 281055Z AUTO 05005KT 1/2SM M03/M06 A2961 RMK AO1 T10321055
MALTA       |KM75 281155Z AUTO 04004KT 1/2SM M04/M06 A2959 RMK AO1 T10381060






000
SXUS55 KMSO 281204
OSOMSO
MONTANA AWOS SUMMARY
NATIONAL WEATHER SERVICE MISSOULA MT
603 AM MDT FRI NOV 28 2014

Montana AWOS Reports

LAUREL      |K6S8 281155Z AUTO 00000KT 40SM 07/M05 A2969 RMK AO1 T00671049
SCOBEY      |K9S2 281155Z AUTO 08006KT 5SM M09/M13 A2965 RMK AO1 T10931132
TWIN BRIDGES|K7S1 281155Z AUTO 15009G13KT 40SM 09/M04 A2981 RMK AO1 T00941043






000
SXUS55 KMSO 281143
OSOMSO
MONTANA AWOS SUMMARY
NATIONAL WEATHER SERVICE MISSOULA MT
543 AM MDT FRI NOV 28 2014

Montana AWOS Reports

LAUREL      |K6S8 281135Z AUTO 00000KT 40SM 07/M05 A2969 RMK AO1 T00671049






000
SXUS55 KMSO 281124
OSOMSO
MONTANA AWOS SUMMARY
NATIONAL WEATHER SERVICE MISSOULA MT
523 AM MDT FRI NOV 28 2014

Montana AWOS Reports

LAUREL      |K6S8 281115Z AUTO 00000KT 40SM 07/M05 A2970 RMK AO1 T00721049






000
SXUS55 KMSO 281113
OSOMSO
MONTANA AWOS SUMMARY
NATIONAL WEATHER SERVICE MISSOULA MT
512 AM MDT FRI NOV 28 2014

Montana AWOS Reports

LAUREL      |K6S8 281055Z AUTO 00000KT 40SM 07/M04 A2970 RMK AO1 T00721043
TWIN BRIDGES|K7S1 281055Z AUTO 11012G22KT 40SM 10/M04 A2982 RMK AO1 T01001043
PLAINS      |KS34 281055Z AUTO 00000KT 40SM 07/03 A2969 RMK AO1 T00720028






000
SXUS55 KMSO 281043
OSOMSO
MONTANA AWOS SUMMARY
NATIONAL WEATHER SERVICE MISSOULA MT
443 AM MDT FRI NOV 28 2014

Montana AWOS Reports

LAUREL      |K6S8 281035Z AUTO 00000KT 40SM 06/M05 A2970 RMK AO1 T00611049






000
SXUS55 KMSO 281033
OSOMSO
MONTANA AWOS SUMMARY
NATIONAL WEATHER SERVICE MISSOULA MT
433 AM MDT FRI NOV 28 2014

Montana AWOS Reports

LAUREL      |K6S8 281015Z AUTO 00000KT 40SM 06/M05 A2971 RMK AO1 T00611049
SCOBEY      |K9S2 280955Z AUTO 08004KT 5SM M09/M13 A2970 RMK AO1 T10881127






000
SXUS55 KMSO 281013
OSOMSO
MONTANA AWOS SUMMARY
NATIONAL WEATHER SERVICE MISSOULA MT
413 AM MDT FRI NOV 28 2014

Montana AWOS Reports

LAUREL      |K6S8 280955Z AUTO 00000KT 40SM 06/M06 A2972 RMK AO1 T00561055
TWIN BRIDGES|K7S1 280955Z AUTO 13013G25KT 40SM 11/M04 A2985 RMK AO1 T01111038






000
SXUS55 KMSO 281013
OSOMSO
MONTANA AWOS SUMMARY
NATIONAL WEATHER SERVICE MISSOULA MT
413 AM MDT FRI NOV 28 2014

Montana AWOS Reports

LAUREL      |K6S8 280955Z AUTO 00000KT 40SM 06/M06 A2972 RMK AO1 T00561055
TWIN BRIDGES|K7S1 280955Z AUTO 13013G25KT 40SM 11/M04 A2985 RMK AO1 T01111038






000
SXUS55 KMSO 281003
OSOMSO
MONTANA AWOS SUMMARY
NATIONAL WEATHER SERVICE MISSOULA MT
403 AM MDT FRI NOV 28 2014

Montana AWOS Reports

PLAINS      |KS34 280955Z AUTO 00000KT 15SM 10/03 A2972 RMK AO1 T01000033






000
SXUS55 KMSO 280953
OSOMSO
MONTANA AWOS SUMMARY
NATIONAL WEATHER SERVICE MISSOULA MT
353 AM MDT FRI NOV 28 2014

Montana AWOS Reports

LAUREL      |K6S8 280935Z AUTO 00000KT 40SM 06/M06 A2973 RMK AO1 T00561055






000
SXUS55 KMSO 280923
OSOMSO
MONTANA AWOS SUMMARY
NATIONAL WEATHER SERVICE MISSOULA MT
322 AM MDT FRI NOV 28 2014

Montana AWOS Reports

LAUREL      |K6S8 280915Z AUTO 00000KT 40SM 06/M06 A2973 RMK AO1 T00611055






000
SXUS55 KMSO 280903
OSOMSO
MONTANA AWOS SUMMARY
NATIONAL WEATHER SERVICE MISSOULA MT
303 AM MDT FRI NOV 28 2014

Montana AWOS Reports

LAUREL      |K6S8 280855Z AUTO 00000KT 40SM 06/M05 A2974 RMK AO1 T00611049
PLAINS      |KS34 280855Z AUTO 17004KT 25SM 11/03 A2973 RMK AO1 T01060033
TWIN BRIDGES|K7S1 280855Z AUTO 12007KT 40SM 09/M03 A2986 RMK AO1 T00891027
SCOBEY      |K9S2 280855Z AUTO 08005KT 5SM M09/M12 A2971 RMK AO1 T10881121






000
SXUS55 KMSO 280853
OSOMSO
MONTANA AWOS SUMMARY
NATIONAL WEATHER SERVICE MISSOULA MT
253 AM MDT FRI NOV 28 2014

Montana AWOS Reports

LAUREL      |K6S8 280835Z AUTO 00000KT 40SM 08/M04 A2975 RMK AO1 T00781038






000
SXUS55 KMSO 280824
OSOMSO
MONTANA AWOS SUMMARY
NATIONAL WEATHER SERVICE MISSOULA MT
223 AM MDT FRI NOV 28 2014

Montana AWOS Reports

LAUREL      |K6S8 280815Z AUTO 00000KT 40SM 07/M05 A2974 RMK AO1 T00671049






000
SXUS55 KMSO 280813
OSOMSO
MONTANA AWOS SUMMARY
NATIONAL WEATHER SERVICE MISSOULA MT
212 AM MDT FRI NOV 28 2014

Montana AWOS Reports

PLAINS      |KS34 280755Z AUTO 20004KT 40SM 10/03 A2974 RMK AO1 T01000028
SCOBEY      |K9S2 280755Z AUTO 08004KT 5SM M08/M12 A2971 RMK AO1 T10821116
TWIN BRIDGES|K7S1 280755Z AUTO 16013G19KT 40SM 10/M04 A2987 RMK AO1 T01001043






000
SXUS55 KMSO 280803
OSOMSO
MONTANA AWOS SUMMARY
NATIONAL WEATHER SERVICE MISSOULA MT
203 AM MDT FRI NOV 28 2014

Montana AWOS Reports

LAUREL      |K6S8 280755Z AUTO 00000KT 40SM 06/M06 A2976 RMK AO1 T00611055






000
SXUS55 KMSO 280744
OSOMSO
MONTANA AWOS SUMMARY
NATIONAL WEATHER SERVICE MISSOULA MT
143 AM MDT FRI NOV 28 2014

Montana AWOS Reports

LAUREL      |K6S8 280735Z AUTO 00000KT 40SM 06/M05 A2976 RMK AO1 T00611049






000
SXUS55 KMSO 280723
OSOMSO
MONTANA AWOS SUMMARY
NATIONAL WEATHER SERVICE MISSOULA MT
123 AM MDT FRI NOV 28 2014

Montana AWOS Reports

LAUREL      |K6S8 280715Z AUTO 00000KT 40SM 07/M05 A2976 RMK AO1 T00671049






000
SXUS55 KMSO 280713
OSOMSO
MONTANA AWOS SUMMARY
NATIONAL WEATHER SERVICE MISSOULA MT
113 AM MDT FRI NOV 28 2014

Montana AWOS Reports

MALTA       |KM75 280655Z AUTO 00000KT 7SM M03/M06 A2966 RMK AO1 T10321060






000
SXUS55 KMSO 280703
OSOMSO
MONTANA AWOS SUMMARY
NATIONAL WEATHER SERVICE MISSOULA MT
102 AM MDT FRI NOV 28 2014

Montana AWOS Reports

LAUREL      |K6S8 280655Z AUTO 00000KT 40SM 08/M04 A2976 RMK AO1 T00781043
PLAINS      |KS34 280655Z AUTO 31004KT 40SM 10/03 A2976 RMK AO1 T01000028






000
SXUS55 KMSO 280643
OSOMSO
MONTANA AWOS SUMMARY
NATIONAL WEATHER SERVICE MISSOULA MT
1243 AM MDT FRI NOV 28 2014

Montana AWOS Reports

LAUREL      |K6S8 280635Z AUTO 00000KT 40SM 08/M04 A2977 RMK AO1 T00831038






000
SXUS55 KMSO 280623
OSOMSO
MONTANA AWOS SUMMARY
NATIONAL WEATHER SERVICE MISSOULA MT
1223 AM MDT FRI NOV 28 2014

Montana AWOS Reports

LAUREL      |K6S8 280615Z AUTO 00000KT 40SM 08/M04 A2977 RMK AO1 T00781043






000
SXUS55 KMSO 280613
OSOMSO
MONTANA AWOS SUMMARY
NATIONAL WEATHER SERVICE MISSOULA MT
1213 AM MDT FRI NOV 28 2014

Montana AWOS Reports

MALTA       |KM75 280555Z AUTO 04004KT 7SM M03/M06 A2966 RMK AO1 T10321060






000
SXUS55 KMSO 280604
OSOMSO
MONTANA AWOS SUMMARY
NATIONAL WEATHER SERVICE MISSOULA MT
1203 AM MDT FRI NOV 28 2014

Montana AWOS Reports

LAUREL      |K6S8 280555Z AUTO 00000KT 40SM 07/M05 A2978 RMK AO1 T00671049
PLAINS      |KS34 280555Z AUTO 00000KT 40SM 11/03 A2977 RMK AO1 T01110028
TWIN BRIDGES|K7S1 280555Z AUTO 11011G16KT 40SM 09/M01 A2992 RMK AO1 T00891005
SCOBEY      |K9S2 280555Z AUTO 08006KT 5SM M08/M11 A2972 RMK AO1 T10771110






000
SXUS55 KMSO 280543
OSOMSO
MONTANA AWOS SUMMARY
NATIONAL WEATHER SERVICE MISSOULA MT
1143 PM MDT THU NOV 27 2014

Montana AWOS Reports

LAUREL      |K6S8 280535Z AUTO 00000KT 40SM 07/M05 A2977 RMK AO1 T00671049






000
SXUS55 KMSO 280523
OSOMSO
MONTANA AWOS SUMMARY
NATIONAL WEATHER SERVICE MISSOULA MT
1122 PM MDT THU NOV 27 2014

Montana AWOS Reports

LAUREL      |K6S8 280515Z AUTO 00000KT 40SM 07/M05 A2976 RMK AO1 T00721049






000
SXUS55 KMSO 280513
OSOMSO
MONTANA AWOS SUMMARY
NATIONAL WEATHER SERVICE MISSOULA MT
1113 PM MDT THU NOV 27 2014

Montana AWOS Reports

SCOBEY      |K9S2 280455Z AUTO 08006KT 2 1/2SM M08/M11 A2976 RMK AO1 T10771110
MALTA       |KM75 280455Z AUTO 04007KT 10SM M03/M06 A2968 RMK AO1 T10271055






000
SXUS55 KMSO 280503
OSOMSO
MONTANA AWOS SUMMARY
NATIONAL WEATHER SERVICE MISSOULA MT
1103 PM MDT THU NOV 27 2014

Montana AWOS Reports

LAUREL      |K6S8 280455Z AUTO 25005KT 40SM 07/M04 A2977 RMK AO1 T00721043
TWIN BRIDGES|K7S1 280455Z AUTO 13013G19KT 40SM 08/00 A2992 RMK AO1 T00830000
PLAINS      |KS34 280455Z AUTO 24004KT 40SM 11/03 A2978 RMK AO1 T01110028






000
SXUS55 KMSO 280443
OSOMSO
MONTANA AWOS SUMMARY
NATIONAL WEATHER SERVICE MISSOULA MT
1043 PM MDT THU NOV 27 2014

Montana AWOS Reports

LAUREL      |K6S8 280435Z AUTO 23004KT 40SM 07/M05 A2977 RMK AO1 T00671049






000
SXUS55 KMSO 280423
OSOMSO
MONTANA AWOS SUMMARY
NATIONAL WEATHER SERVICE MISSOULA MT
1023 PM MDT THU NOV 27 2014

Montana AWOS Reports

LAUREL      |K6S8 280415Z AUTO 23007KT 40SM 08/M04 A2979 RMK AO1 T00781043






000
SXUS55 KMSO 280413
OSOMSO
MONTANA AWOS SUMMARY
NATIONAL WEATHER SERVICE MISSOULA MT
1013 PM MDT THU NOV 27 2014

Montana AWOS Reports

MALTA       |KM75 280355Z AUTO 04005KT 15SM M03/M06 A2969 RMK AO1 T10271055






000
SXUS55 KMSO 280403
OSOMSO
MONTANA AWOS SUMMARY
NATIONAL WEATHER SERVICE MISSOULA MT
1003 PM MDT THU NOV 27 2014

Montana AWOS Reports

LAUREL      |K6S8 280355Z AUTO 24007KT 40SM 07/M05 A2980 RMK AO1 T00671049
PLAINS      |KS34 280355Z AUTO 19005KT 40SM 11/03 A2979 RMK AO1 T01110028
TWIN BRIDGES|K7S1 280355Z AUTO 15021G27KT 40SM 08/00 A2994 RMK AO1 T00830000






000
SXUS55 KMSO 280403
OSOMSO
MONTANA AWOS SUMMARY
NATIONAL WEATHER SERVICE MISSOULA MT
1003 PM MDT THU NOV 27 2014

Montana AWOS Reports

LAUREL      |K6S8 280355Z AUTO 24007KT 40SM 07/M05 A2980 RMK AO1 T00671049
PLAINS      |KS34 280355Z AUTO 19005KT 40SM 11/03 A2979 RMK AO1 T01110028
TWIN BRIDGES|K7S1 280355Z AUTO 15021G27KT 40SM 08/00 A2994 RMK AO1 T00830000






000
SXUS55 KMSO 280343
OSOMSO
MONTANA AWOS SUMMARY
NATIONAL WEATHER SERVICE MISSOULA MT
943 PM MDT THU NOV 27 2014

Montana AWOS Reports

LAUREL      |K6S8 280335Z AUTO 23004KT 40SM 06/M06 A2980 RMK AO1 T00611055






000
SXUS55 KMSO 280323
OSOMSO
MONTANA AWOS SUMMARY
NATIONAL WEATHER SERVICE MISSOULA MT
922 PM MDT THU NOV 27 2014

Montana AWOS Reports

MALTA       |KM75 280255Z AUTO 05004KT 15SM M02/M04 A2971 RMK AO1 T10211043
LAUREL      |K6S8 280315Z AUTO 00000KT 40SM 07/M05 A2982 RMK AO1 T00671049






000
SXUS55 KMSO 280304
OSOMSO
MONTANA AWOS SUMMARY
NATIONAL WEATHER SERVICE MISSOULA MT
903 PM MDT THU NOV 27 2014

Montana AWOS Reports

LAUREL      |K6S8 280255Z AUTO 00000KT 40SM 08/M05 A2982 RMK AO1 T00781049
TWIN BRIDGES|K7S1 280255Z AUTO 13011KT 40SM 08/01 A2997 RMK AO1 T00830011
PLAINS      |KS34 280255Z AUTO 00000KT 40SM 11/03 A2979 RMK AO1 T01110033






000
SXUS55 KMSO 280243
OSOMSO
MONTANA AWOS SUMMARY
NATIONAL WEATHER SERVICE MISSOULA MT
843 PM MDT THU NOV 27 2014

Montana AWOS Reports

LAUREL      |K6S8 280235Z AUTO 00000KT 40SM 08/M05 A2982 RMK AO1 T00781049






000
SXUS55 KMSO 280223
OSOMSO
MONTANA AWOS SUMMARY
NATIONAL WEATHER SERVICE MISSOULA MT
822 PM MDT THU NOV 27 2014

Montana AWOS Reports

LAUREL      |K6S8 280215Z AUTO 24006KT 40SM 08/M05 A2982 RMK AO1 T00781049






000
SXUS55 KMSO 280213
OSOMSO
MONTANA AWOS SUMMARY
NATIONAL WEATHER SERVICE MISSOULA MT
813 PM MDT THU NOV 27 2014

Montana AWOS Reports

PLAINS      |KS34 280155Z AUTO 21006KT 40SM 12/03 A2981 RMK AO1 T01170033
SCOBEY      |K9S2 280155Z AUTO 08007KT 5SM M07/M11 A2979 RMK AO1 T10711105
MALTA       |KM75 280155Z AUTO 00000KT 10SM M02/M04 A2971 RMK AO1 T10161043






000
SXUS55 KMSO 280203
OSOMSO
MONTANA AWOS SUMMARY
NATIONAL WEATHER SERVICE MISSOULA MT
803 PM MDT THU NOV 27 2014

Montana AWOS Reports

LAUREL      |K6S8 280155Z AUTO 22009KT 40SM 07/M06 A2982 RMK AO1 T00721055
TWIN BRIDGES|K7S1 280155Z AUTO 12005KT 40SM 08/02 A2998 RMK AO1 T00830017






000
SXUS55 KMSO 280143
OSOMSO
MONTANA AWOS SUMMARY
NATIONAL WEATHER SERVICE MISSOULA MT
743 PM MDT THU NOV 27 2014

Montana AWOS Reports

LAUREL      |K6S8 280135Z AUTO 23008KT 40SM 08/M05 A2983 RMK AO1 T00781049






000
SXUS55 KMSO 280143
OSOMSO
MONTANA AWOS SUMMARY
NATIONAL WEATHER SERVICE MISSOULA MT
743 PM MDT THU NOV 27 2014

Montana AWOS Reports

LAUREL      |K6S8 280135Z AUTO 23008KT 40SM 08/M05 A2983 RMK AO1 T00781049






000
SXUS55 KMSO 280124
OSOMSO
MONTANA AWOS SUMMARY
NATIONAL WEATHER SERVICE MISSOULA MT
723 PM MDT THU NOV 27 2014

Montana AWOS Reports

LAUREL      |K6S8 280115Z AUTO 22009G15KT 40SM 07/M06 A2984 RMK AO1 T00721055






000
SXUS55 KMSO 280113
OSOMSO
MONTANA AWOS SUMMARY
NATIONAL WEATHER SERVICE MISSOULA MT
713 PM MDT THU NOV 27 2014

Montana AWOS Reports

SCOBEY      |K9S2 280055Z AUTO 07012KT 10SM M07/M11 A2979 RMK AO1 T10711110
MALTA       |KM75 280055Z AUTO 05005KT 1/2SM M02/M04 A2971 RMK AO1 T10161043
PLAINS      |KS34 280055Z AUTO 21007KT 40SM 11/03 A2982 RMK AO1 T01110028
TWIN BRIDGES|K7S1 280055Z AUTO 13008KT 7SM 10/02 A2997 RMK AO1 T01000017






000
SXUS55 KMSO 280103
OSOMSO
MONTANA AWOS SUMMARY
NATIONAL WEATHER SERVICE MISSOULA MT
703 PM MDT THU NOV 27 2014

Montana AWOS Reports

LAUREL      |K6S8 280055Z AUTO 22011G15KT 40SM 07/M05 A2984 RMK AO1 T00721049






000
SXUS55 KMSO 280043
OSOMSO
MONTANA AWOS SUMMARY
NATIONAL WEATHER SERVICE MISSOULA MT
643 PM MDT THU NOV 27 2014

Montana AWOS Reports

LAUREL      |K6S8 280035Z AUTO 23008KT 40SM 07/M05 A2985 RMK AO1 T00671049






000
SXUS55 KMSO 280024
OSOMSO
MONTANA AWOS SUMMARY
NATIONAL WEATHER SERVICE MISSOULA MT
623 PM MDT THU NOV 27 2014

Montana AWOS Reports

LAUREL      |K6S8 280015Z AUTO 00000KT 40SM 07/M05 A2986 RMK AO1 T00671049






000
SXUS55 KMSO 280013
OSOMSO
MONTANA AWOS SUMMARY
NATIONAL WEATHER SERVICE MISSOULA MT
613 PM MDT THU NOV 27 2014

Montana AWOS Reports

SCOBEY      |K9S2 272355Z AUTO 06011G17KT 15SM M07/M11 A2979 RMK AO1 T10711110
PLAINS      |KS34 272355Z AUTO 00000KT 40SM 10/03 A2984 RMK AO1 T01000028
MALTA       |KM75 272355Z AUTO 04004KT 15SM 00/M03 A2972 RMK AO1 T00001032






000
SXUS55 KMSO 280004
OSOMSO
MONTANA AWOS SUMMARY
NATIONAL WEATHER SERVICE MISSOULA MT
603 PM MDT THU NOV 27 2014

Montana AWOS Reports

LAUREL      |K6S8 272355Z AUTO 22008KT 40SM 08/M05 A2986 RMK AO1 T00781049
TWIN BRIDGES|K7S1 272355Z AUTO 18018G30KT 40SM 13/M02 A2996 RMK AO1 T01281016






000
SXUS55 KMSO 272333
OSOMSO
MONTANA AWOS SUMMARY
NATIONAL WEATHER SERVICE MISSOULA MT
532 PM MDT THU NOV 27 2014

Montana AWOS Reports

LAUREL      |K6S8 272315Z AUTO 22007KT 40SM 07/M04 A2986 RMK AO1 T00671043






000
SXUS55 KMSO 272303
OSOMSO
MONTANA AWOS SUMMARY
NATIONAL WEATHER SERVICE MISSOULA MT
503 PM MDT THU NOV 27 2014

Montana AWOS Reports

LAUREL      |K6S8 272255Z AUTO 22007KT 40SM 07/M04 A2986 RMK AO1 T00721043
SCOBEY      |K9S2 272255Z AUTO 06008KT 15SM M07/M11 A2979 RMK AO1 T10661105
MALTA       |KM75 272255Z AUTO 00000KT 40SM 02/M02 A2972 RMK AO1 T00221016
PLAINS      |KS34 272255Z AUTO 00000KT 40SM 11/04 A2987 RMK AO1 T01110039
TWIN BRIDGES|K7S1 272255Z AUTO 18022G32KT 40SM 13/M01 A2995 RMK AO1 T01331010






000
SXUS55 KMSO 272243
OSOMSO
MONTANA AWOS SUMMARY
NATIONAL WEATHER SERVICE MISSOULA MT
443 PM MDT THU NOV 27 2014

Montana AWOS Reports

LAUREL      |K6S8 272235Z AUTO 22005KT 40SM 07/M04 A2986 RMK AO1 T00721043






000
SXUS55 KMSO 272223
OSOMSO
MONTANA AWOS SUMMARY
NATIONAL WEATHER SERVICE MISSOULA MT
423 PM MDT THU NOV 27 2014

Montana AWOS Reports

LAUREL      |K6S8 272215Z AUTO 22006KT 40SM 07/M05 A2987 RMK AO1 T00671049






000
SXUS55 KMSO 272203
OSOMSO
MONTANA AWOS SUMMARY
NATIONAL WEATHER SERVICE MISSOULA MT
403 PM MDT THU NOV 27 2014

Montana AWOS Reports

LAUREL      |K6S8 272155Z AUTO 00000KT 40SM 08/M04 A2986 RMK AO1 T00831038
SCOBEY      |K9S2 272155Z AUTO 08008KT 15SM M06/M10 A2979 RMK AO1 T10601099
MALTA       |KM75 272155Z AUTO 00000KT 40SM 05/M01 A2970 RMK AO1 T00501005
TWIN BRIDGES|K7S1 272155Z AUTO 17016G27KT 40SM 14/M02 A2996 RMK AO1 T01441016






000
SXUS55 KMSO 272143
OSOMSO
MONTANA AWOS SUMMARY
NATIONAL WEATHER SERVICE MISSOULA MT
343 PM MDT THU NOV 27 2014

Montana AWOS Reports

LAUREL      |K6S8 272135Z AUTO 22005KT 40SM 09/M04 A2987 RMK AO1 T00891038






000
SXUS55 KMSO 272123
OSOMSO
MONTANA AWOS SUMMARY
NATIONAL WEATHER SERVICE MISSOULA MT
322 PM MDT THU NOV 27 2014

Montana AWOS Reports

LAUREL      |K6S8 272115Z AUTO 21008KT 40SM 08/M04 A2986 RMK AO1 T00831043






000
SXUS55 KMSO 272103
OSOMSO
MONTANA AWOS SUMMARY
NATIONAL WEATHER SERVICE MISSOULA MT
303 PM MDT THU NOV 27 2014

Montana AWOS Reports

LAUREL      |K6S8 272055Z AUTO 21010G14KT 40SM 08/M04 A2986 RMK AO1 T00831043
MALTA       |KM75 272055Z AUTO 00000KT 40SM 04/M01 A2970 RMK AO1 T00391010
PLAINS      |KS34 272055Z AUTO 00000KT 40SM 12/04 A2988 RMK AO1 T01220044
TWIN BRIDGES|K7S1 272055Z AUTO 18019G26KT 40SM 14/M02 A2998 RMK AO1 T01391021






000
SXUS55 KMSO 272043
OSOMSO
MONTANA AWOS SUMMARY
NATIONAL WEATHER SERVICE MISSOULA MT
243 PM MDT THU NOV 27 2014

Montana AWOS Reports

LAUREL      |K6S8 272035Z AUTO 21007KT 40SM 08/M04 A2986 RMK AO1 T00781038






000
SXUS55 KMSO 272033
OSOMSO
MONTANA AWOS SUMMARY
NATIONAL WEATHER SERVICE MISSOULA MT
232 PM MDT THU NOV 27 2014

Montana AWOS Reports

LAUREL      |K6S8 272015Z AUTO 19010G14KT 40SM 08/M02 A2987 RMK AO1 T00781021






000
SXUS55 KMSO 272004
OSOMSO
MONTANA AWOS SUMMARY
NATIONAL WEATHER SERVICE MISSOULA MT
203 PM MDT THU NOV 27 2014

Montana AWOS Reports

MALTA       |KM75 271955Z AUTO 00000KT 40SM 04/M01 A2971 RMK AO1 T00441010
PLAINS      |KS34 271955Z AUTO 00000KT 5SM 11/04 A2989 RMK AO1 T01060044
LAUREL      |K6S8 271955Z AUTO 21009G14KT 40SM 07/M03 A2988 RMK AO1 T00671027
SCOBEY      |K9S2 271955Z AUTO 09008KT 7SM M07/M11 A2980 RMK AO1 T10661105
TWIN BRIDGES|K7S1 271955Z AUTO 16014G24KT 40SM 14/M03 A3000 RMK AO1 T01441027






000
SXUS55 KMSO 271943
OSOMSO
MONTANA AWOS SUMMARY
NATIONAL WEATHER SERVICE MISSOULA MT
143 PM MDT THU NOV 27 2014

Montana AWOS Reports

LAUREL      |K6S8 271935Z AUTO 21011G16KT 40SM 07/M02 A2988 RMK AO1 T00721021






000
SXUS55 KMSO 271923
OSOMSO
MONTANA AWOS SUMMARY
NATIONAL WEATHER SERVICE MISSOULA MT
123 PM MDT THU NOV 27 2014

Montana AWOS Reports

LAUREL      |K6S8 271915Z AUTO 20013G17KT 40SM 07/M04 A2989 RMK AO1 T00721043






000
SXUS55 KMSO 271913
OSOMSO
MONTANA AWOS SUMMARY
NATIONAL WEATHER SERVICE MISSOULA MT
113 PM MDT THU NOV 27 2014

Montana AWOS Reports

MALTA       |KM75 271855Z AUTO 00000KT 40SM 03/M02 A2973 RMK AO1 T00281021
PLAINS      |KS34 271855Z AUTO 22004KT 25SM 08/04 A2992 RMK AO1 T00830044
TWIN BRIDGES|K7S1 271855Z AUTO 14009G18KT 40SM 14/M02 A3002 RMK AO1 T01391021






000
SXUS55 KMSO 271903
OSOMSO
MONTANA AWOS SUMMARY
NATIONAL WEATHER SERVICE MISSOULA MT
103 PM MDT THU NOV 27 2014

Montana AWOS Reports

LAUREL      |K6S8 271855Z AUTO 22007KT 40SM 06/M02 A2989 RMK AO1 T00611021
SCOBEY      |K9S2 271855Z AUTO 09012G19KT 2 1/2SM M07/M11 A2983 RMK AO1 T10711110






000
SXUS55 KMSO 271843
OSOMSO
MONTANA AWOS SUMMARY
NATIONAL WEATHER SERVICE MISSOULA MT
1242 PM MDT THU NOV 27 2014

Montana AWOS Reports

LAUREL      |K6S8 271835Z AUTO 21007KT 40SM 06/M03 A2990 RMK AO1 T00561027






000
SXUS55 KMSO 271823
OSOMSO
MONTANA AWOS SUMMARY
NATIONAL WEATHER SERVICE MISSOULA MT
1223 PM MDT THU NOV 27 2014

Montana AWOS Reports

LAUREL      |K6S8 271815Z AUTO 21006KT 40SM 05/M03 A2991 RMK AO1 T00501027






000
SXUS55 KMSO 271803
OSOMSO
MONTANA AWOS SUMMARY
NATIONAL WEATHER SERVICE MISSOULA MT
1203 PM MDT THU NOV 27 2014

Montana AWOS Reports

LAUREL      |K6S8 271755Z AUTO 20012G17KT 40SM 05/M03 A2990 RMK AO1 T00501027
SCOBEY      |K9S2 271755Z AUTO 11014G23KT 1/4SM M06/M10 A2986 RMK AO1 T10601099
PLAINS      |KS34 271755Z AUTO 00000KT 25SM 04/02 A2994 RMK AO1 T00390017
TWIN BRIDGES|K7S1 271755Z AUTO 16015G24KT 40SM 12/M02 A3004 RMK AO1 T01171021
MALTA       |KM75 271755Z AUTO 00000KT 40SM 02/M02 A2976 RMK AO1 T00221016






000
SXUS55 KMSO 271744
OSOMSO
MONTANA AWOS SUMMARY
NATIONAL WEATHER SERVICE MISSOULA MT
1143 AM MDT THU NOV 27 2014

Montana AWOS Reports

LAUREL      |K6S8 271735Z AUTO 20011G18KT 40SM 06/M02 A2991 RMK AO1 T00561021






000
SXUS55 KMSO 271724
OSOMSO
MONTANA AWOS SUMMARY
NATIONAL WEATHER SERVICE MISSOULA MT
1123 AM MDT THU NOV 27 2014

Montana AWOS Reports

LAUREL      |K6S8 271715Z AUTO 21012G17KT 40SM 05/M03 A2991 RMK AO1 T00501027






000
SXUS55 KMSO 271713
OSOMSO
MONTANA AWOS SUMMARY
NATIONAL WEATHER SERVICE MISSOULA MT
1113 AM MDT THU NOV 27 2014

Montana AWOS Reports

LAUREL      |K6S8 271655Z AUTO 22008KT 40SM 04/M03 A2991 RMK AO1 T00391032
SCOBEY      |K9S2 271655Z AUTO 11014G20KT 1SM M07/M11 A2991 RMK AO1 T10661110
MALTA       |KM75 271655Z AUTO 08004KT 40SM 00/M03 A2979 RMK AO1 T00001027
PLAINS      |KS34 271655Z AUTO 00000KT 25SM 02/01 A2993 RMK AO1 T00220006
TWIN BRIDGES|K7S1 271655Z AUTO 11007KT 40SM 09/M02 A3005 RMK AO1 T00941021






000
SXUS55 KMSO 271643
OSOMSO
MONTANA AWOS SUMMARY
NATIONAL WEATHER SERVICE MISSOULA MT
1043 AM MDT THU NOV 27 2014

Montana AWOS Reports

LAUREL      |K6S8 271635Z AUTO 22011KT 40SM 04/M03 A2991 RMK AO1 T00391027






000
SXUS55 KMSO 271623
OSOMSO
MONTANA AWOS SUMMARY
NATIONAL WEATHER SERVICE MISSOULA MT
1023 AM MDT THU NOV 27 2014

Montana AWOS Reports

LAUREL      |K6S8 271615Z AUTO 21009G15KT 40SM 04/M03 A2991 RMK AO1 T00441027






000
SXUS55 KMSO 271603
OSOMSO
MONTANA AWOS SUMMARY
NATIONAL WEATHER SERVICE MISSOULA MT
1003 AM MDT THU NOV 27 2014

Montana AWOS Reports

LAUREL      |K6S8 271555Z AUTO 21009G17KT 40SM 04/M03 A2990 RMK AO1 T00441027
PLAINS      |KS34 271555Z AUTO 00000KT 10SM 01/M01 A2994 RMK AO1 T00111010
MALTA       |KM75 271555Z AUTO 05004KT 25SM M02/M05 A2981 RMK AO1 T10211049
TWIN BRIDGES|K7S1 271555Z AUTO 16014G18KT 40SM 09/M03 A3004 RMK AO1 T00891027






000
SXUS55 KMSO 271544
OSOMSO
MONTANA AWOS SUMMARY
NATIONAL WEATHER SERVICE MISSOULA MT
943 AM MDT THU NOV 27 2014

Montana AWOS Reports

LAUREL      |K6S8 271535Z AUTO 22011G15KT 40SM 04/M03 A2990 RMK AO1 T00391032






000
SXUS55 KMSO 271523
OSOMSO
MONTANA AWOS SUMMARY
NATIONAL WEATHER SERVICE MISSOULA MT
922 AM MDT THU NOV 27 2014

Montana AWOS Reports

LAUREL      |K6S8 271515Z AUTO 22007KT 40SM 02/M03 A2991 RMK AO1 T00221032






000
SXUS55 KMSO 271503
OSOMSO
MONTANA AWOS SUMMARY
NATIONAL WEATHER SERVICE MISSOULA MT
903 AM MDT THU NOV 27 2014

Montana AWOS Reports

LAUREL      |K6S8 271455Z AUTO 21006KT 40SM 02/M03 A2991 RMK AO1 T00221032
SCOBEY      |K9S2 271455Z AUTO 14004KT 15SM M08/M13 A2998 RMK AO1 T10771127
TWIN BRIDGES|K7S1 271455Z AUTO 11011G16KT 40SM 08/M04 A3004 RMK AO1 T00831038
MALTA       |KM75 271455Z AUTO 05007KT 7SM M03/M06 A2985 RMK AO1 T10271055






000
SXUS55 KMSO 271443
OSOMSO
MONTANA AWOS SUMMARY
NATIONAL WEATHER SERVICE MISSOULA MT
843 AM MDT THU NOV 27 2014

Montana AWOS Reports

LAUREL      |K6S8 271435Z AUTO 22006KT 40SM 00/M04 A2991 RMK AO1 T00001038






000
SXUS55 KMSO 271423
OSOMSO
MONTANA AWOS SUMMARY
NATIONAL WEATHER SERVICE MISSOULA MT
822 AM MDT THU NOV 27 2014

Montana AWOS Reports

LAUREL      |K6S8 271415Z AUTO 00000KT 40SM M02/M06 A2992 RMK AO1 T10161055






000
SXUS55 KMSO 271403
OSOMSO
MONTANA AWOS SUMMARY
NATIONAL WEATHER SERVICE MISSOULA MT
803 AM MDT THU NOV 27 2014

Montana AWOS Reports

LAUREL      |K6S8 271355Z AUTO 00000KT 40SM M01/M04 A2992 RMK AO1 T10051043
SCOBEY      |K9S2 271355Z AUTO 00000KT 25SM M08/M13 A3001 RMK AO1 T10821132
MALTA       |KM75 271355Z AUTO 09004KT 40SM M02/M06 A2988 RMK AO1 T10211055
PLAINS      |KS34 271355Z AUTO 00000KT 3SM 01/M01 A2993 RMK AO1 T00061010
TWIN BRIDGES|K7S1 271355Z AUTO 12012KT 40SM 08/M03 A3003 RMK AO1 T00831032






000
SXUS55 KMSO 271343
OSOMSO
MONTANA AWOS SUMMARY
NATIONAL WEATHER SERVICE MISSOULA MT
743 AM MDT THU NOV 27 2014

Montana AWOS Reports

LAUREL      |K6S8 271335Z AUTO 40SM M02/M06 A2993 RMK AO1 T10211060






000
SXUS55 KMSO 271323
OSOMSO
MONTANA AWOS SUMMARY
NATIONAL WEATHER SERVICE MISSOULA MT
722 AM MDT THU NOV 27 2014

Montana AWOS Reports

LAUREL      |K6S8 271315Z AUTO 00000KT 25SM M02/M06 A2993 RMK AO1 T10211060






000
SXUS55 KMSO 271303
OSOMSO
MONTANA AWOS SUMMARY
NATIONAL WEATHER SERVICE MISSOULA MT
703 AM MDT THU NOV 27 2014

Montana AWOS Reports

LAUREL      |K6S8 271255Z AUTO 00000KT 15SM M02/M06 A2994 RMK AO1 T10211060
SCOBEY      |K9S2 271255Z AUTO 00000KT 10SM M09/M14 A3005 RMK AO1 T10881138
MALTA       |KM75 271255Z AUTO 09006KT 40SM M02/M05 A2991 RMK AO1 T10211049
TWIN BRIDGES|K7S1 271255Z AUTO 12013G18KT 40SM 08/M04 A3003 RMK AO1 T00831043






000
SXUS55 KMSO 271243
OSOMSO
MONTANA AWOS SUMMARY
NATIONAL WEATHER SERVICE MISSOULA MT
642 AM MDT THU NOV 27 2014

Montana AWOS Reports

LAUREL      |K6S8 271235Z AUTO 00000KT 10SM M02/M07 A2996 RMK AO1 T10211066






000
SXUS55 KMSO 271233
OSOMSO
MONTANA AWOS SUMMARY
NATIONAL WEATHER SERVICE MISSOULA MT
633 AM MDT THU NOV 27 2014

Montana AWOS Reports

MALTA       |KM75 270755Z AUTO 06006KT 3SM M03/M06 A3008 RMK AO1 T10321060
MALTA       |KM75 270855Z AUTO 06005KT 2 1/2SM M03/M06 A3005 RMK AO1 T10321060
MALTA       |KM75 271055Z AUTO 08008KT 5SM M02/M05 A2999 RMK AO1 T10211049
MALTA       |KM75 271155Z AUTO 08006KT 7SM M02/M05 A2996 RMK AO1 T10211049






000
SXUS55 KMSO 271223
OSOMSO
MONTANA AWOS SUMMARY
NATIONAL WEATHER SERVICE MISSOULA MT
623 AM MDT THU NOV 27 2014

Montana AWOS Reports

LAUREL      |K6S8 271215Z AUTO 00000KT 25SM M01/M06 A2997 RMK AO1 T10101055






000
SXUS55 KMSO 271213
OSOMSO
MONTANA AWOS SUMMARY
NATIONAL WEATHER SERVICE MISSOULA MT
613 AM MDT THU NOV 27 2014

Montana AWOS Reports

PLAINS      |KS34 271155Z AUTO 00000KT 1 1/4SM 00/M02 A2995 RMK AO1 T00001016
TWIN BRIDGES|K7S1 271155Z AUTO 00000KT 40SM 03/M06 A3005 RMK AO1 T00331055






000
SXUS55 KMSO 271204
OSOMSO
MONTANA AWOS SUMMARY
NATIONAL WEATHER SERVICE MISSOULA MT
603 AM MDT THU NOV 27 2014

Montana AWOS Reports

LAUREL      |K6S8 271155Z AUTO 00000KT 40SM M01/M06 A2999 RMK AO1 T10101055
SCOBEY      |K9S2 271155Z AUTO 14005KT 15SM M09/M14 A3009 RMK AO1 T10931143






000
SXUS55 KMSO 271143
OSOMSO
MONTANA AWOS SUMMARY
NATIONAL WEATHER SERVICE MISSOULA MT
543 AM MDT THU NOV 27 2014

Montana AWOS Reports

LAUREL      |K6S8 271135Z AUTO 00000KT 40SM M01/M05 A2999 RMK AO1 T10101049






000
SXUS55 KMSO 271124
OSOMSO
MONTANA AWOS SUMMARY
NATIONAL WEATHER SERVICE MISSOULA MT
523 AM MDT THU NOV 27 2014

Montana AWOS Reports

LAUREL      |K6S8 271115Z AUTO 00000KT 25SM M01/M05 A2998 RMK AO1 T10101049






000
SXUS55 KMSO 271113
OSOMSO
MONTANA AWOS SUMMARY
NATIONAL WEATHER SERVICE MISSOULA MT
513 AM MDT THU NOV 27 2014

Montana AWOS Reports

SCOBEY      |K9S2 271055Z AUTO 00000KT 25SM M10/M15 A3011 RMK AO1 T10991149






000
SXUS55 KMSO 271103
OSOMSO
MONTANA AWOS SUMMARY
NATIONAL WEATHER SERVICE MISSOULA MT
502 AM MDT THU NOV 27 2014

Montana AWOS Reports

LAUREL      |K6S8 271055Z AUTO 00000KT 40SM M01/M05 A2999 RMK AO1 T10051049
PLAINS      |KS34 271055Z AUTO 00000KT 1SM 00/M02 A2998 RMK AO1 T00001016
TWIN BRIDGES|K7S1 271055Z AUTO 00000KT 40SM 03/M05 A3006 RMK AO1 T00281049






000
SXUS55 KMSO 271053
OSOMSO
MONTANA AWOS SUMMARY
NATIONAL WEATHER SERVICE MISSOULA MT
452 AM MDT THU NOV 27 2014

Montana AWOS Reports

LAUREL      |K6S8 271035Z AUTO 00000KT 40SM 00/M04 A3000 RMK AO1 T00001043






000
SXUS55 KMSO 271023
OSOMSO
MONTANA AWOS SUMMARY
NATIONAL WEATHER SERVICE MISSOULA MT
423 AM MDT THU NOV 27 2014

Montana AWOS Reports

LAUREL      |K6S8 271015Z AUTO 00000KT 40SM 00/M04 A3000 RMK AO1 T00001043






000
SXUS55 KMSO 271023
OSOMSO
MONTANA AWOS SUMMARY
NATIONAL WEATHER SERVICE MISSOULA MT
423 AM MDT THU NOV 27 2014

Montana AWOS Reports

LAUREL      |K6S8 271015Z AUTO 00000KT 40SM 00/M04 A3000 RMK AO1 T00001043






000
SXUS55 KMSO 271004
OSOMSO
MONTANA AWOS SUMMARY
NATIONAL WEATHER SERVICE MISSOULA MT
403 AM MDT THU NOV 27 2014

Montana AWOS Reports

SCOBEY      |K9S2 270955Z AUTO 13004KT 25SM M10/M15 A3014 RMK AO1 T10991149
PLAINS      |KS34 270955Z AUTO 00000KT 3/4SM 01/M01 A2999 RMK AO1 T00061010
LAUREL      |K6S8 270955Z AUTO 23006KT 40SM 00/M04 A2998 RMK AO1 T00001043
TWIN BRIDGES|K7S1 270955Z AUTO 08004KT 40SM 03/M05 A3007 RMK AO1 T00281049






000
SXUS55 KMSO 271004
OSOMSO
MONTANA AWOS SUMMARY
NATIONAL WEATHER SERVICE MISSOULA MT
403 AM MDT THU NOV 27 2014

Montana AWOS Reports

SCOBEY      |K9S2 270955Z AUTO 13004KT 25SM M10/M15 A3014 RMK AO1 T10991149
PLAINS      |KS34 270955Z AUTO 00000KT 3/4SM 01/M01 A2999 RMK AO1 T00061010
LAUREL      |K6S8 270955Z AUTO 23006KT 40SM 00/M04 A2998 RMK AO1 T00001043
TWIN BRIDGES|K7S1 270955Z AUTO 08004KT 40SM 03/M05 A3007 RMK AO1 T00281049






000
SXUS55 KMSO 270943
OSOMSO
MONTANA AWOS SUMMARY
NATIONAL WEATHER SERVICE MISSOULA MT
343 AM MDT THU NOV 27 2014

Montana AWOS Reports

LAUREL      |K6S8 270935Z AUTO 00000KT 40SM M01/M05 A3000 RMK AO1 T10051049






000
SXUS55 KMSO 270923
OSOMSO
MONTANA AWOS SUMMARY
NATIONAL WEATHER SERVICE MISSOULA MT
323 AM MDT THU NOV 27 2014

Montana AWOS Reports

LAUREL      |K6S8 270915Z AUTO 00000KT 40SM M02/M06 A2999 RMK AO1 T10161055






000
SXUS55 KMSO 270913
OSOMSO
MONTANA AWOS SUMMARY
NATIONAL WEATHER SERVICE MISSOULA MT
312 AM MDT THU NOV 27 2014

Montana AWOS Reports

PLAINS      |KS34 270855Z AUTO 00000KT 1SM 00/M02 A3000 RMK AO1 T00001016
TWIN BRIDGES|K7S1 270855Z AUTO 18008KT 40SM 05/M04 A3008 RMK AO1 T00501043
SCOBEY      |K9S2 270855Z AUTO 13007KT 25SM M11/M16 A3015 RMK AO1 T11101160






000
SXUS55 KMSO 270903
OSOMSO
MONTANA AWOS SUMMARY
NATIONAL WEATHER SERVICE MISSOULA MT
303 AM MDT THU NOV 27 2014

Montana AWOS Reports

LAUREL      |K6S8 270855Z AUTO 00000KT 40SM M02/M06 A3001 RMK AO1 T10161055






000
SXUS55 KMSO 270843
OSOMSO
MONTANA AWOS SUMMARY
NATIONAL WEATHER SERVICE MISSOULA MT
243 AM MDT THU NOV 27 2014

Montana AWOS Reports

LAUREL      |K6S8 270835Z AUTO 00000KT 40SM M02/M06 A3001 RMK AO1 T10161055






000
SXUS55 KMSO 270803
OSOMSO
MONTANA AWOS SUMMARY
NATIONAL WEATHER SERVICE MISSOULA MT
203 AM MDT THU NOV 27 2014

Montana AWOS Reports

LAUREL      |K6S8 270755Z AUTO 00000KT 40SM M02/M06 A3003 RMK AO1 T10161055
SCOBEY      |K9S2 270755Z AUTO 13004KT 25SM M11/M16 A3018 RMK AO1 T11101155
PLAINS      |KS34 270755Z AUTO 00000KT 1 1/4SM 01/M02 A3002 RMK AO1 T00061016
TWIN BRIDGES|K7S1 270755Z AUTO 14005KT 40SM 02/M04 A3008 RMK AO1 T00221043






000
SXUS55 KMSO 270743
OSOMSO
MONTANA AWOS SUMMARY
NATIONAL WEATHER SERVICE MISSOULA MT
143 AM MDT THU NOV 27 2014

Montana AWOS Reports

LAUREL      |K6S8 270735Z AUTO 00000KT 40SM M02/M06 A3003 RMK AO1 T10211055






000
SXUS55 KMSO 270724
OSOMSO
MONTANA AWOS SUMMARY
NATIONAL WEATHER SERVICE MISSOULA MT
123 AM MDT THU NOV 27 2014

Montana AWOS Reports

LAUREL      |K6S8 270715Z AUTO 00000KT 40SM M02/M06 A3004 RMK AO1 T10211055






000
SXUS55 KMSO 270703
OSOMSO
MONTANA AWOS SUMMARY
NATIONAL WEATHER SERVICE MISSOULA MT
103 AM MDT THU NOV 27 2014

Montana AWOS Reports

LAUREL      |K6S8 270655Z AUTO 00000KT 40SM M03/M06 A3004 RMK AO1 T10271060
SCOBEY      |K9S2 270655Z AUTO 00000KT 25SM M12/M16 A3020 RMK AO1 T11161160
PLAINS      |KS34 270655Z AUTO 00000KT 1SM 01/M01 A3004 RMK AO1 T00061010
TWIN BRIDGES|K7S1 270655Z AUTO 12005KT 40SM 04/M04 A3009 RMK AO1 T00391038






000
SXUS55 KMSO 270643
OSOMSO
MONTANA AWOS SUMMARY
NATIONAL WEATHER SERVICE MISSOULA MT
1243 AM MDT THU NOV 27 2014

Montana AWOS Reports

LAUREL      |K6S8 270635Z AUTO 00000KT 15SM M03/M06 A3006 RMK AO1 T10271060






000
SXUS55 KMSO 270623
OSOMSO
MONTANA AWOS SUMMARY
NATIONAL WEATHER SERVICE MISSOULA MT
1223 AM MDT THU NOV 27 2014

Montana AWOS Reports

LAUREL      |K6S8 270615Z AUTO 00000KT 15SM M03/M06 A3006 RMK AO1 T10271060






000
SXUS55 KMSO 270613
OSOMSO
MONTANA AWOS SUMMARY
NATIONAL WEATHER SERVICE MISSOULA MT
1213 AM MDT THU NOV 27 2014

Montana AWOS Reports

LAUREL      |K6S8 270555Z AUTO 00000KT 7SM M03/M06 A3006 RMK AO1 T10271060
PLAINS      |KS34 270555Z AUTO 00000KT 1 1/2SM 01/M01 A3005 RMK AO1 T00061010
SCOBEY      |K9S2 270555Z AUTO 13007KT 15SM M11/M15 A3020 RMK AO1 T11051149
MALTA       |KM75 270555Z AUTO 07005KT 15SM M03/M06 A3011 RMK AO1 T10321060






000
SXUS55 KMSO 270603
OSOMSO
MONTANA AWOS SUMMARY
NATIONAL WEATHER SERVICE MISSOULA MT
1202 AM MDT THU NOV 27 2014

Montana AWOS Reports

TWIN BRIDGES|K7S1 270555Z AUTO 12005KT 40SM 03/M03 A3010 RMK AO1 T00331032






000
SXUS55 KMSO 270553
OSOMSO
MONTANA AWOS SUMMARY
NATIONAL WEATHER SERVICE MISSOULA MT
1152 PM MDT WED NOV 26 2014

Montana AWOS Reports

LAUREL      |K6S8 270535Z AUTO 00000KT 5SM M03/M06 A3006 RMK AO1 T10271060






000
SXUS55 KMSO 270523
OSOMSO
MONTANA AWOS SUMMARY
NATIONAL WEATHER SERVICE MISSOULA MT
1123 PM MDT WED NOV 26 2014

Montana AWOS Reports

LAUREL      |K6S8 270515Z AUTO 00000KT 7SM M03/M06 A3007 RMK AO1 T10271060






000
SXUS55 KMSO 270513
OSOMSO
MONTANA AWOS SUMMARY
NATIONAL WEATHER SERVICE MISSOULA MT
1113 PM MDT WED NOV 26 2014

Montana AWOS Reports

TWIN BRIDGES|K7S1 270455Z AUTO 11006KT 40SM 03/M03 A3010 RMK AO1 T00281032






000
SXUS55 KMSO 270503
OSOMSO
MONTANA AWOS SUMMARY
NATIONAL WEATHER SERVICE MISSOULA MT
1103 PM MDT WED NOV 26 2014

Montana AWOS Reports

LAUREL      |K6S8 270455Z AUTO 00000KT 10SM M03/M06 A3008 RMK AO1 T10271060
PLAINS      |KS34 270455Z AUTO 00000KT 1 3/4SM 00/M02 A3006 RMK AO1 T00001021






000
SXUS55 KMSO 270444
OSOMSO
MONTANA AWOS SUMMARY
NATIONAL WEATHER SERVICE MISSOULA MT
1043 PM MDT WED NOV 26 2014

Montana AWOS Reports

LAUREL      |K6S8 270435Z AUTO 00000KT 25SM M03/M06 A3009 RMK AO1 T10271060






000
SXUS55 KMSO 270444
OSOMSO
MONTANA AWOS SUMMARY
NATIONAL WEATHER SERVICE MISSOULA MT
1043 PM MDT WED NOV 26 2014

Montana AWOS Reports

LAUREL      |K6S8 270435Z AUTO 00000KT 25SM M03/M06 A3009 RMK AO1 T10271060






000
SXUS55 KMSO 270423
OSOMSO
MONTANA AWOS SUMMARY
NATIONAL WEATHER SERVICE MISSOULA MT
1023 PM MDT WED NOV 26 2014

Montana AWOS Reports

LAUREL      |K6S8 270415Z AUTO 00000KT 40SM M03/M06 A3009 RMK AO1 T10271060






000
SXUS55 KMSO 270403
OSOMSO
MONTANA AWOS SUMMARY
NATIONAL WEATHER SERVICE MISSOULA MT
1003 PM MDT WED NOV 26 2014

Montana AWOS Reports

LAUREL      |K6S8 270355Z AUTO 00000KT 25SM M03/M06 A3010 RMK AO1 T10271060
SCOBEY      |K9S2 270355Z AUTO 13007KT 25SM M11/M16 A3024 RMK AO1 T11051155
MALTA       |KM75 270355Z AUTO 11004KT 5SM M02/M06 A3016 RMK AO1 T10211055
PLAINS      |KS34 270355Z AUTO 00000KT 1 3/4SM 01/M02 A3007 RMK AO1 T00061016
TWIN BRIDGES|K7S1 270355Z AUTO 14005KT 40SM 03/M04 A3011 RMK AO1 T00331038






000
SXUS55 KMSO 270403
OSOMSO
MONTANA AWOS SUMMARY
NATIONAL WEATHER SERVICE MISSOULA MT
1003 PM MDT WED NOV 26 2014

Montana AWOS Reports

LAUREL      |K6S8 270355Z AUTO 00000KT 25SM M03/M06 A3010 RMK AO1 T10271060
SCOBEY      |K9S2 270355Z AUTO 13007KT 25SM M11/M16 A3024 RMK AO1 T11051155
MALTA       |KM75 270355Z AUTO 11004KT 5SM M02/M06 A3016 RMK AO1 T10211055
PLAINS      |KS34 270355Z AUTO 00000KT 1 3/4SM 01/M02 A3007 RMK AO1 T00061016
TWIN BRIDGES|K7S1 270355Z AUTO 14005KT 40SM 03/M04 A3011 RMK AO1 T00331038






000
SXUS55 KMSO 270343
OSOMSO
MONTANA AWOS SUMMARY
NATIONAL WEATHER SERVICE MISSOULA MT
943 PM MDT WED NOV 26 2014

Montana AWOS Reports

LAUREL      |K6S8 270335Z AUTO 00000KT 25SM M03/M06 A3010 RMK AO1 T10271060






000
SXUS55 KMSO 270343
OSOMSO
MONTANA AWOS SUMMARY
NATIONAL WEATHER SERVICE MISSOULA MT
943 PM MDT WED NOV 26 2014

Montana AWOS Reports

LAUREL      |K6S8 270335Z AUTO 00000KT 25SM M03/M06 A3010 RMK AO1 T10271060






000
SXUS55 KMSO 270323
OSOMSO
MONTANA AWOS SUMMARY
NATIONAL WEATHER SERVICE MISSOULA MT
923 PM MDT WED NOV 26 2014

Montana AWOS Reports

LAUREL      |K6S8 270315Z AUTO 00000KT 40SM M03/M06 A3011 RMK AO1 T10271060






000
SXUS55 KMSO 270313
OSOMSO
MONTANA AWOS SUMMARY
NATIONAL WEATHER SERVICE MISSOULA MT
913 PM MDT WED NOV 26 2014

Montana AWOS Reports

MALTA       |KM75 270255Z AUTO 00000KT 5SM M02/M06 A3018 RMK AO1 T10211060






000
SXUS55 KMSO 270303
OSOMSO
MONTANA AWOS SUMMARY
NATIONAL WEATHER SERVICE MISSOULA MT
903 PM MDT WED NOV 26 2014

Montana AWOS Reports

LAUREL      |K6S8 270255Z AUTO 00000KT 40SM M03/M06 A3011 RMK AO1 T10271060
SCOBEY      |K9S2 270255Z AUTO 00000KT 25SM M11/M16 A3025 RMK AO1 T11051155
PLAINS      |KS34 270255Z AUTO 00000KT 2SM 01/M01 A3008 RMK AO1 T00061010
TWIN BRIDGES|K7S1 270255Z AUTO 13009KT 40SM 06/M03 A3010 RMK AO1 T00611032






000
SXUS55 KMSO 270243
OSOMSO
MONTANA AWOS SUMMARY
NATIONAL WEATHER SERVICE MISSOULA MT
843 PM MDT WED NOV 26 2014

Montana AWOS Reports

LAUREL      |K6S8 270235Z AUTO 00000KT 40SM M03/M06 A3011 RMK AO1 T10271060






000
SXUS55 KMSO 270223
OSOMSO
MONTANA AWOS SUMMARY
NATIONAL WEATHER SERVICE MISSOULA MT
822 PM MDT WED NOV 26 2014

Montana AWOS Reports

LAUREL      |K6S8 270215Z AUTO 00000KT 40SM M03/M06 A3011 RMK AO1 T10271060






000
SXUS55 KMSO 270203
OSOMSO
MONTANA AWOS SUMMARY
NATIONAL WEATHER SERVICE MISSOULA MT
803 PM MDT WED NOV 26 2014

Montana AWOS Reports

LAUREL      |K6S8 270155Z AUTO 00000KT 40SM M03/M06 A3011 RMK AO1 T10271060
SCOBEY      |K9S2 270155Z AUTO 00000KT 25SM M11/M16 A3026 RMK AO1 T11101160
PLAINS      |KS34 270155Z AUTO 00000KT 2SM 01/M02 A3009 RMK AO1 T00061016
TWIN BRIDGES|K7S1 270155Z AUTO 11005KT 40SM 07/M03 A3012 RMK AO1 T00671027
MALTA       |KM75 270155Z AUTO 11005KT 25SM M02/M06 A3019 RMK AO1 T10211060






000
SXUS55 KMSO 270143
OSOMSO
MONTANA AWOS SUMMARY
NATIONAL WEATHER SERVICE MISSOULA MT
743 PM MDT WED NOV 26 2014

Montana AWOS Reports

LAUREL      |K6S8 270135Z AUTO 00000KT 40SM M03/M06 A3012 RMK AO1 T10271060






000
SXUS55 KMSO 270124
OSOMSO
MONTANA AWOS SUMMARY
NATIONAL WEATHER SERVICE MISSOULA MT
723 PM MDT WED NOV 26 2014

Montana AWOS Reports

LAUREL      |K6S8 270115Z AUTO 00000KT 40SM M02/M06 A3012 RMK AO1 T10211055
MALTA       |KM75 270055Z AUTO 00000KT 40SM M02/M06 A3020 RMK AO1 T10211060






000
SXUS55 KMSO 270104
OSOMSO
MONTANA AWOS SUMMARY
NATIONAL WEATHER SERVICE MISSOULA MT
703 PM MDT WED NOV 26 2014

Montana AWOS Reports

LAUREL      |K6S8 270055Z AUTO 00000KT 25SM M02/M06 A3012 RMK AO1 T10211055
SCOBEY      |K9S2 270055Z AUTO 14005KT 25SM M11/M16 A3026 RMK AO1 T11051155
TWIN BRIDGES|K7S1 270055Z AUTO 00000KT 40SM 07/M03 A3013 RMK AO1 T00671027
PLAINS      |KS34 270055Z AUTO 00000KT 2 1/2SM 01/M02 A3011 RMK AO1 T00061016






000
SXUS55 KMSO 270043
OSOMSO
MONTANA AWOS SUMMARY
NATIONAL WEATHER SERVICE MISSOULA MT
643 PM MDT WED NOV 26 2014

Montana AWOS Reports

LAUREL      |K6S8 270035Z AUTO 00000KT 25SM M02/M06 A3013 RMK AO1 T10211055






000
SXUS55 KMSO 270023
OSOMSO
MONTANA AWOS SUMMARY
NATIONAL WEATHER SERVICE MISSOULA MT
623 PM MDT WED NOV 26 2014

Montana AWOS Reports

LAUREL      |K6S8 270015Z AUTO 00000KT 25SM M02/M06 A3014 RMK AO1 T10211055






000
SXUS55 KMSO 270003
OSOMSO
MONTANA AWOS SUMMARY
NATIONAL WEATHER SERVICE MISSOULA MT
603 PM MDT WED NOV 26 2014

Montana AWOS Reports

LAUREL      |K6S8 262355Z AUTO 00000KT 25SM M02/M06 A3013 RMK AO1 T10211055
MALTA       |KM75 262355Z AUTO 00000KT 40SM M02/M06 A3020 RMK AO1 T10161055
PLAINS      |KS34 262355Z AUTO 00000KT 2 1/2SM 01/M02 A3012 RMK AO1 T00061016
TWIN BRIDGES|K7S1 262355Z AUTO VRB05KT 40SM 09/M02 A3013 RMK AO1 T00891016






000
SXUS55 KMSO 262343
OSOMSO
MONTANA AWOS SUMMARY
NATIONAL WEATHER SERVICE MISSOULA MT
543 PM MDT WED NOV 26 2014

Montana AWOS Reports

LAUREL      |K6S8 262335Z AUTO 00000KT 15SM M02/M06 A3013 RMK AO1 T10211055






000
SXUS55 KMSO 262323
OSOMSO
MONTANA AWOS SUMMARY
NATIONAL WEATHER SERVICE MISSOULA MT
523 PM MDT WED NOV 26 2014

Montana AWOS Reports

LAUREL      |K6S8 262315Z AUTO 00000KT 10SM M02/M05 A3013 RMK AO1 T10161049






000
SXUS55 KMSO 262303
OSOMSO
MONTANA AWOS SUMMARY
NATIONAL WEATHER SERVICE MISSOULA MT
503 PM MDT WED NOV 26 2014

Montana AWOS Reports

LAUREL      |K6S8 262255Z AUTO 00000KT 7SM M02/M05 A3014 RMK AO1 T10161049
SCOBEY      |K9S2 262255Z AUTO 00000KT 3 1/2SM M10/M15 A3028 RMK AO1 T10991149
MALTA       |KM75 262255Z AUTO 00000KT 40SM M01/M06 A3020 RMK AO1 T10101055
PLAINS      |KS34 262255Z AUTO 00000KT 4SM 01/M02 A3013 RMK AO1 T00061016
TWIN BRIDGES|K7S1 262255Z AUTO 00000KT 40SM 10/M01 A3013 RMK AO1 T01001005






000
SXUS55 KMSO 262243
OSOMSO
MONTANA AWOS SUMMARY
NATIONAL WEATHER SERVICE MISSOULA MT
443 PM MDT WED NOV 26 2014

Montana AWOS Reports

LAUREL      |K6S8 262235Z AUTO 00000KT 5SM M02/M05 A3014 RMK AO1 T10161049






000
SXUS55 KMSO 262233
OSOMSO
MONTANA AWOS SUMMARY
NATIONAL WEATHER SERVICE MISSOULA MT
433 PM MDT WED NOV 26 2014

Montana AWOS Reports

LAUREL      |K6S8 262215Z AUTO 00000KT 1 3/4SM M02/M05 A3014 RMK AO1 T10161049






000
SXUS55 KMSO 262203
OSOMSO
MONTANA AWOS SUMMARY
NATIONAL WEATHER SERVICE MISSOULA MT
403 PM MDT WED NOV 26 2014

Montana AWOS Reports

LAUREL      |K6S8 262155Z AUTO 00000KT 1SM M01/M04 A3014 RMK AO1 T10101043
SCOBEY      |K9S2 262155Z AUTO 13004KT 5SM M10/M15 A3027 RMK AO1 T10991149
MALTA       |KM75 262155Z AUTO 11005KT 40SM M01/M06 A3019 RMK AO1 T10101055
TWIN BRIDGES|K7S1 262155Z AUTO 00000KT 40SM 09/01 A3012 RMK AO1 T00890006
PLAINS      |KS34 262155Z AUTO 00000KT 2SM 01/M02 A3013 RMK AO1 T00061016






000
SXUS55 KMSO 262203
OSOMSO
MONTANA AWOS SUMMARY
NATIONAL WEATHER SERVICE MISSOULA MT
403 PM MDT WED NOV 26 2014

Montana AWOS Reports

LAUREL      |K6S8 262155Z AUTO 00000KT 1SM M01/M04 A3014 RMK AO1 T10101043
SCOBEY      |K9S2 262155Z AUTO 13004KT 5SM M10/M15 A3027 RMK AO1 T10991149
MALTA       |KM75 262155Z AUTO 11005KT 40SM M01/M06 A3019 RMK AO1 T10101055
TWIN BRIDGES|K7S1 262155Z AUTO 00000KT 40SM 09/01 A3012 RMK AO1 T00890006
PLAINS      |KS34 262155Z AUTO 00000KT 2SM 01/M02 A3013 RMK AO1 T00061016






000
SXUS55 KMSO 262143
OSOMSO
MONTANA AWOS SUMMARY
NATIONAL WEATHER SERVICE MISSOULA MT
343 PM MDT WED NOV 26 2014

Montana AWOS Reports

LAUREL      |K6S8 262135Z AUTO 00000KT 3/4SM M01/M04 A3014 RMK AO1 T10101043






000
SXUS55 KMSO 262123
OSOMSO
MONTANA AWOS SUMMARY
NATIONAL WEATHER SERVICE MISSOULA MT
323 PM MDT WED NOV 26 2014

Montana AWOS Reports

LAUREL      |K6S8 262115Z AUTO 00000KT 1/2SM M01/M04 A3014 RMK AO1 T10101043






000
SXUS55 KMSO 262123
OSOMSO
MONTANA AWOS SUMMARY
NATIONAL WEATHER SERVICE MISSOULA MT
323 PM MDT WED NOV 26 2014

Montana AWOS Reports

LAUREL      |K6S8 262115Z AUTO 00000KT 1/2SM M01/M04 A3014 RMK AO1 T10101043






000
SXUS55 KMSO 262113
OSOMSO
MONTANA AWOS SUMMARY
NATIONAL WEATHER SERVICE MISSOULA MT
313 PM MDT WED NOV 26 2014

Montana AWOS Reports

PLAINS      |KS34 262055Z AUTO 00000KT 2SM 01/M02 A3013 RMK AO1 T00061016
TWIN BRIDGES|K7S1 262055Z AUTO 00000KT 40SM 08/01 A3012 RMK AO1 T00830006
SCOBEY      |K9S2 262055Z AUTO 00000KT 10SM M10/M16 A3026 RMK AO1 T10991155
MALTA       |KM75 262055Z AUTO 00000KT 40SM M01/M06 A3021 RMK AO1 T10101055






000
SXUS55 KMSO 262103
OSOMSO
MONTANA AWOS SUMMARY
NATIONAL WEATHER SERVICE MISSOULA MT
303 PM MDT WED NOV 26 2014

Montana AWOS Reports

LAUREL      |K6S8 262055Z AUTO 00000KT 1/2SM M02/M05 A3014 RMK AO1 T10161049






000
SXUS55 KMSO 262043
OSOMSO
MONTANA AWOS SUMMARY
NATIONAL WEATHER SERVICE MISSOULA MT
243 PM MDT WED NOV 26 2014

Montana AWOS Reports

LAUREL      |K6S8 262035Z AUTO 00000KT 1 3/4SM M01/M04 A3015 RMK AO1 T10101043






000
SXUS55 KMSO 262023
OSOMSO
MONTANA AWOS SUMMARY
NATIONAL WEATHER SERVICE MISSOULA MT
223 PM MDT WED NOV 26 2014

Montana AWOS Reports

LAUREL      |K6S8 262015Z AUTO 00000KT 1/2SM M01/M05 A3014 RMK AO1 T10101049






000
SXUS55 KMSO 262013
OSOMSO
MONTANA AWOS SUMMARY
NATIONAL WEATHER SERVICE MISSOULA MT
213 PM MDT WED NOV 26 2014

Montana AWOS Reports

PLAINS      |KS34 261955Z AUTO 00000KT 1SM 01/M02 A3014 RMK AO1 T00061016
TWIN BRIDGES|K7S1 261955Z AUTO 00000KT 40SM 08/01 A3012 RMK AO1 T00780006
SCOBEY      |K9S2 261955Z AUTO 07004KT 25SM M11/M17 A3026 RMK AO1 T11051166
MALTA       |KM75 261955Z AUTO 11005KT 40SM M01/M06 A3021 RMK AO1 T10101055






000
SXUS55 KMSO 262003
OSOMSO
MONTANA AWOS SUMMARY
NATIONAL WEATHER SERVICE MISSOULA MT
203 PM MDT WED NOV 26 2014

Montana AWOS Reports

LAUREL      |K6S8 261955Z AUTO 00000KT 1/2SM M01/M04 A3015 RMK AO1 T10101043






000
SXUS55 KMSO 261943
OSOMSO
MONTANA AWOS SUMMARY
NATIONAL WEATHER SERVICE MISSOULA MT
143 PM MDT WED NOV 26 2014

Montana AWOS Reports

LAUREL      |K6S8 261935Z AUTO 00000KT 1/2SM M02/M05 A3015 RMK AO1 T10161049






000
SXUS55 KMSO 261923
OSOMSO
MONTANA AWOS SUMMARY
NATIONAL WEATHER SERVICE MISSOULA MT
123 PM MDT WED NOV 26 2014

Montana AWOS Reports

LAUREL      |K6S8 261915Z AUTO 00000KT 1/2SM M02/M05 A3015 RMK AO1 T10161049






000
SXUS55 KMSO 261913
OSOMSO
MONTANA AWOS SUMMARY
NATIONAL WEATHER SERVICE MISSOULA MT
113 PM MDT WED NOV 26 2014

Montana AWOS Reports

LAUREL      |K6S8 261855Z AUTO 00000KT 1/2SM M02/M05 A3015 RMK AO1 T10161049
PLAINS      |KS34 261855Z AUTO 00000KT 3/4SM 01/M02 A3016 RMK AO1 T00061016
SCOBEY      |K9S2 261855Z AUTO 05006KT 25SM M10/M16 A3028 RMK AO1 T10991160
MALTA       |KM75 261855Z AUTO 00000KT 25SM M02/M06 A3021 RMK AO1 T10161055






000
SXUS55 KMSO 261903
OSOMSO
MONTANA AWOS SUMMARY
NATIONAL WEATHER SERVICE MISSOULA MT
102 PM MDT WED NOV 26 2014

Montana AWOS Reports

TWIN BRIDGES|K7S1 261855Z AUTO 00000KT 40SM 06/01 A3012 RMK AO1 T00610011






000
SXUS55 KMSO 261844
OSOMSO
MONTANA AWOS SUMMARY
NATIONAL WEATHER SERVICE MISSOULA MT
1243 PM MDT WED NOV 26 2014

Montana AWOS Reports

LAUREL      |K6S8 261835Z AUTO 00000KT 1/2SM M02/M05 A3015 RMK AO1 T10161049






000
SXUS55 KMSO 261823
OSOMSO
MONTANA AWOS SUMMARY
NATIONAL WEATHER SERVICE MISSOULA MT
1223 PM MDT WED NOV 26 2014

Montana AWOS Reports

LAUREL      |K6S8 261815Z AUTO 00000KT 1/2SM M02/M05 A3015 RMK AO1 T10161049






000
SXUS55 KMSO 261804
OSOMSO
MONTANA AWOS SUMMARY
NATIONAL WEATHER SERVICE MISSOULA MT
1203 PM MDT WED NOV 26 2014

Montana AWOS Reports

LAUREL      |K6S8 261755Z AUTO 00000KT 3/4SM M02/M05 A3015 RMK AO1 T10161049
TWIN BRIDGES|K7S1 261755Z AUTO 00000KT 40SM M01/M03 A3012 RMK AO1 T10051027
MALTA       |KM75 261755Z AUTO 00000KT 15SM M02/M06 A3023 RMK AO1 T10211055
PLAINS      |KS34 261755Z AUTO 00000KT 1 1/4SM 01/M02 A3015 RMK AO1 T00061016






000
SXUS55 KMSO 261753
OSOMSO
MONTANA AWOS SUMMARY
NATIONAL WEATHER SERVICE MISSOULA MT
1153 AM MDT WED NOV 26 2014

Montana AWOS Reports

LAUREL      |K6S8 261735Z AUTO 00000KT 3/4SM M02/M05 A3016 RMK AO1 T10161049






000
SXUS55 KMSO 261724
OSOMSO
MONTANA AWOS SUMMARY
NATIONAL WEATHER SERVICE MISSOULA MT
1123 AM MDT WED NOV 26 2014

Montana AWOS Reports

LAUREL      |K6S8 261715Z AUTO 00000KT 1/2SM M02/M05 A3016 RMK AO1 T10161049






000
SXUS55 KMSO 261703
OSOMSO
MONTANA AWOS SUMMARY
NATIONAL WEATHER SERVICE MISSOULA MT
1103 AM MDT WED NOV 26 2014

Montana AWOS Reports

LAUREL      |K6S8 261655Z AUTO 00000KT 3/4SM M02/M06 A3015 RMK AO1 T10211055
TWIN BRIDGES|K7S1 261655Z AUTO 00000KT 40SM M03/M06 A3011 RMK AO1 T10321060
PLAINS      |KS34 261655Z AUTO 00000KT 1 3/4SM 00/M02 A3016 RMK AO1 T00001021






000
SXUS55 KMSO 261643
OSOMSO
MONTANA AWOS SUMMARY
NATIONAL WEATHER SERVICE MISSOULA MT
1043 AM MDT WED NOV 26 2014

Montana AWOS Reports

LAUREL      |K6S8 261635Z AUTO 00000KT 1/2SM M02/M06 A3015 RMK AO1 T10211055






000
SXUS55 KMSO 261624
OSOMSO
MONTANA AWOS SUMMARY
NATIONAL WEATHER SERVICE MISSOULA MT
1023 AM MDT WED NOV 26 2014

Montana AWOS Reports

LAUREL      |K6S8 261615Z AUTO 00000KT 1/2SM M02/M06 A3015 RMK AO1 T10211055






000
SXUS55 KMSO 261604
OSOMSO
MONTANA AWOS SUMMARY
NATIONAL WEATHER SERVICE MISSOULA MT
1003 AM MDT WED NOV 26 2014

Montana AWOS Reports

LAUREL      |K6S8 261555Z AUTO 00000KT 1/2SM M02/M06 A3015 RMK AO1 T10211055
SCOBEY      |K9S2 261555Z AUTO 32005KT 15SM M12/M17 A3027 RMK AO1 T11211166
TWIN BRIDGES|K7S1 261555Z AUTO 00000KT 1SM M04/M07 A3010 RMK AO1 T10431071
PLAINS      |KS34 261555Z AUTO 00000KT 1 1/4SM 00/M02 A3015 RMK AO1 T00001021
MALTA       |KM75 261555Z AUTO 00000KT 5SM M03/M06 A3020 RMK AO1 T10321060






000
SXUS55 KMSO 261553
OSOMSO
MONTANA AWOS SUMMARY
NATIONAL WEATHER SERVICE MISSOULA MT
953 AM MDT WED NOV 26 2014

Montana AWOS Reports

LAUREL      |K6S8 261535Z AUTO 00000KT 1/2SM M02/M06 A3014 RMK AO1 T10211055






000
SXUS55 KMSO 261523
OSOMSO
MONTANA AWOS SUMMARY
NATIONAL WEATHER SERVICE MISSOULA MT
922 AM MDT WED NOV 26 2014

Montana AWOS Reports

LAUREL      |K6S8 261515Z AUTO 00000KT 1SM M02/M06 A3014 RMK AO1 T10211055






000
SXUS55 KMSO 261503
OSOMSO
MONTANA AWOS SUMMARY
NATIONAL WEATHER SERVICE MISSOULA MT
903 AM MDT WED NOV 26 2014

Montana AWOS Reports

LAUREL      |K6S8 261455Z AUTO 00000KT 3/4SM M03/M06 A3014 RMK AO1 T10271060
SCOBEY      |K9S2 261455Z AUTO 00000KT 25SM M14/M19 A3023 RMK AO1 T11381188
PLAINS      |KS34 261455Z AUTO 00000KT 1 1/4SM 00/M02 A3015 RMK AO1 T00001021
TWIN BRIDGES|K7S1 261455Z AUTO 00000KT 1/4SM M05/M08 A3009 RMK AO1 T10491077
MALTA       |KM75 261455Z AUTO 00000KT 2 1/2SM M03/M07 A3020 RMK AO1 T10321066






000
SXUS55 KMSO 261443
OSOMSO
MONTANA AWOS SUMMARY
NATIONAL WEATHER SERVICE MISSOULA MT
843 AM MDT WED NOV 26 2014

Montana AWOS Reports

LAUREL      |K6S8 261435Z AUTO 00000KT 1SM M03/M07 A3014 RMK AO1 T10271066






000
SXUS55 KMSO 261433
OSOMSO
MONTANA AWOS SUMMARY
NATIONAL WEATHER SERVICE MISSOULA MT
833 AM MDT WED NOV 26 2014

Montana AWOS Reports

LAUREL      |K6S8 261415Z AUTO 00000KT 1 1/2SM M03/M07 A3013 RMK AO1 T10271066






000
SXUS55 KMSO 261403
OSOMSO
MONTANA AWOS SUMMARY
NATIONAL WEATHER SERVICE MISSOULA MT
803 AM MDT WED NOV 26 2014

Montana AWOS Reports

LAUREL      |K6S8 261355Z AUTO 00000KT 1 3/4SM M03/M07 A3013 RMK AO1 T10271066
PLAINS      |KS34 261355Z AUTO 00000KT 1SM 00/M02 A3014 RMK AO1 T00001021
TWIN BRIDGES|K7S1 261355Z AUTO 16004KT 3/4SM M04/M07 A3008 RMK AO1 T10431066
SCOBEY      |K9S2 261355Z AUTO 00000KT 25SM M12/M17 A3022 RMK AO1 T11161171






000
SXUS55 KMSO 261344
OSOMSO
MONTANA AWOS SUMMARY
NATIONAL WEATHER SERVICE MISSOULA MT
743 AM MDT WED NOV 26 2014

Montana AWOS Reports

LAUREL      |K6S8 261335Z AUTO 00000KT 1 3/4SM M02/M06 A3013 RMK AO1 T10211060






000
SXUS55 KMSO 261323
OSOMSO
MONTANA AWOS SUMMARY
NATIONAL WEATHER SERVICE MISSOULA MT
723 AM MDT WED NOV 26 2014

Montana AWOS Reports

LAUREL      |K6S8 261315Z AUTO 00000KT 1 1/2SM M02/M06 A3013 RMK AO1 T10211060






000
SXUS55 KMSO 261313
OSOMSO
MONTANA AWOS SUMMARY
NATIONAL WEATHER SERVICE MISSOULA MT
713 AM MDT WED NOV 26 2014

Montana AWOS Reports

PLAINS      |KS34 261255Z AUTO 00000KT 1SM 00/M02 A3015 RMK AO1 T00001021
MALTA       |KM75 260855Z AUTO 00000KT 25SM M04/M08 A3016 RMK AO1 T10381077
TWIN BRIDGES|K7S1 261255Z AUTO 00000KT 40SM M04/M07 A3007 RMK AO1 T10381066






000
SXUS55 KMSO 261303
OSOMSO
MONTANA AWOS SUMMARY
NATIONAL WEATHER SERVICE MISSOULA MT
703 AM MDT WED NOV 26 2014

Montana AWOS Reports

LAUREL      |K6S8 261255Z AUTO 00000KT 1SM M02/M06 A3013 RMK AO1 T10211060
SCOBEY      |K9S2 261255Z AUTO 32005KT 10SM M11/M17 A3020 RMK AO1 T11101166






000
SXUS55 KMSO 261253
OSOMSO
MONTANA AWOS SUMMARY
NATIONAL WEATHER SERVICE MISSOULA MT
653 AM MDT WED NOV 26 2014

Montana AWOS Reports

MALTA       |KM75 260755Z AUTO 00000KT 25SM M03/M07 A3015 RMK AO1 T10321071






000
SXUS55 KMSO 261243
OSOMSO
MONTANA AWOS SUMMARY
NATIONAL WEATHER SERVICE MISSOULA MT
643 AM MDT WED NOV 26 2014

Montana AWOS Reports

LAUREL      |K6S8 261235Z AUTO 00000KT 1 1/2SM M02/M07 A3013 RMK AO1 T10211066






000
SXUS55 KMSO 261223
OSOMSO
MONTANA AWOS SUMMARY
NATIONAL WEATHER SERVICE MISSOULA MT
622 AM MDT WED NOV 26 2014

Montana AWOS Reports

LAUREL      |K6S8 261215Z AUTO 00000KT 1 1/2SM M02/M07 A3013 RMK AO1 T10211066






000
SXUS55 KMSO 261213
OSOMSO
MONTANA AWOS SUMMARY
NATIONAL WEATHER SERVICE MISSOULA MT
613 AM MDT WED NOV 26 2014

Montana AWOS Reports

TWIN BRIDGES|K7S1 261155Z AUTO 00000KT 1/4SM M02/M04 A3006 RMK AO1 T10211043






000
SXUS55 KMSO 261154
OSOMSO
MONTANA AWOS SUMMARY
NATIONAL WEATHER SERVICE MISSOULA MT
553 AM MDT WED NOV 26 2014

Montana AWOS Reports

LAUREL      |K6S8 261135Z AUTO 00000KT 1SM M02/M07 A3013 RMK AO1 T10211066






000
SXUS55 KMSO 261123
OSOMSO
MONTANA AWOS SUMMARY
NATIONAL WEATHER SERVICE MISSOULA MT
522 AM MDT WED NOV 26 2014

Montana AWOS Reports

LAUREL      |K6S8 261115Z AUTO 00000KT 1SM M02/M07 A3013 RMK AO1 T10211071






000
SXUS55 KMSO 261113
OSOMSO
MONTANA AWOS SUMMARY
NATIONAL WEATHER SERVICE MISSOULA MT
513 AM MDT WED NOV 26 2014

Montana AWOS Reports

LAUREL      |K6S8 261055Z AUTO 00000KT 1 1/4SM M02/M07 A3014 RMK AO1 T10211071
PLAINS      |KS34 261055Z AUTO 00000KT 1/2SM 00/M02 A3015 RMK AO1 T00001021
TWIN BRIDGES|K7S1 261055Z AUTO 00000KT 1/2SM M02/M05 A3006 RMK AO1 T10211049






000
SXUS55 KMSO 261053
OSOMSO
MONTANA AWOS SUMMARY
NATIONAL WEATHER SERVICE MISSOULA MT
452 AM MDT WED NOV 26 2014

Montana AWOS Reports

LAUREL      |K6S8 261035Z AUTO 00000KT 1 3/4SM M02/M07 A3013 RMK AO1 T10211066






000
SXUS55 KMSO 261023
OSOMSO
MONTANA AWOS SUMMARY
NATIONAL WEATHER SERVICE MISSOULA MT
423 AM MDT WED NOV 26 2014

Montana AWOS Reports

LAUREL      |K6S8 261015Z AUTO 00000KT 2SM M02/M07 A3014 RMK AO1 T10211066






000
SXUS55 KMSO 261013
OSOMSO
MONTANA AWOS SUMMARY
NATIONAL WEATHER SERVICE MISSOULA MT
413 AM MDT WED NOV 26 2014

Montana AWOS Reports

SCOBEY      |K9S2 260955Z AUTO 32005KT 25SM M11/M16 A3019 RMK AO1 T11051155
PLAINS      |KS34 260955Z AUTO 00000KT 3/4SM 00/M02 A3016 RMK AO1 T00001021






000
SXUS55 KMSO 261003
OSOMSO
MONTANA AWOS SUMMARY
NATIONAL WEATHER SERVICE MISSOULA MT
403 AM MDT WED NOV 26 2014

Montana AWOS Reports

LAUREL      |K6S8 260955Z AUTO 00000KT 2SM M02/M06 A3014 RMK AO1 T10211060
TWIN BRIDGES|K7S1 260955Z AUTO 00000KT 40SM M02/M04 A3007 RMK AO1 T10161043






000
SXUS55 KMSO 261003
OSOMSO
MONTANA AWOS SUMMARY
NATIONAL WEATHER SERVICE MISSOULA MT
403 AM MDT WED NOV 26 2014

Montana AWOS Reports

LAUREL      |K6S8 260955Z AUTO 00000KT 2SM M02/M06 A3014 RMK AO1 T10211060
TWIN BRIDGES|K7S1 260955Z AUTO 00000KT 40SM M02/M04 A3007 RMK AO1 T10161043






000
SXUS55 KMSO 260943
OSOMSO
MONTANA AWOS SUMMARY
NATIONAL WEATHER SERVICE MISSOULA MT
343 AM MDT WED NOV 26 2014

Montana AWOS Reports

LAUREL      |K6S8 260935Z AUTO 00000KT 1 1/4SM M02/M06 A3014 RMK AO1 T10211060






000
SXUS55 KMSO 260933
OSOMSO
MONTANA AWOS SUMMARY
NATIONAL WEATHER SERVICE MISSOULA MT
332 AM MDT WED NOV 26 2014

Montana AWOS Reports

LAUREL      |K6S8 260915Z AUTO 00000KT 1 3/4SM M02/M06 A3014 RMK AO1 T10211060






000
SXUS55 KMSO 260913
OSOMSO
MONTANA AWOS SUMMARY
NATIONAL WEATHER SERVICE MISSOULA MT
313 AM MDT WED NOV 26 2014

Montana AWOS Reports

SCOBEY      |K9S2 260855Z AUTO 00000KT 7SM M10/M14 A3018 RMK AO1 T10991143






000
SXUS55 KMSO 260903
OSOMSO
MONTANA AWOS SUMMARY
NATIONAL WEATHER SERVICE MISSOULA MT
303 AM MDT WED NOV 26 2014

Montana AWOS Reports

LAUREL      |K6S8 260855Z AUTO 1 3/4SM M02/M06 A3014 RMK AO1 T10211060
PLAINS      |KS34 260855Z AUTO 00000KT 3/4SM 00/M02 A3015 RMK AO1 T00001021
TWIN BRIDGES|K7S1 260855Z AUTO 00000KT 40SM M01/M04 A3007 RMK AO1 T10101038






000
SXUS55 KMSO 260843
OSOMSO
MONTANA AWOS SUMMARY
NATIONAL WEATHER SERVICE MISSOULA MT
243 AM MDT WED NOV 26 2014

Montana AWOS Reports

LAUREL      |K6S8 260835Z AUTO 1 1/4SM M02/M06 A3014 RMK AO1 T10211060






000
SXUS55 KMSO 260824
OSOMSO
MONTANA AWOS SUMMARY
NATIONAL WEATHER SERVICE MISSOULA MT
223 AM MDT WED NOV 26 2014

Montana AWOS Reports

LAUREL      |K6S8 260815Z AUTO 3/4SM M02/M06 A3014 RMK AO1 T10211060






000
SXUS55 KMSO 260813
OSOMSO
MONTANA AWOS SUMMARY
NATIONAL WEATHER SERVICE MISSOULA MT
212 AM MDT WED NOV 26 2014

Montana AWOS Reports

PLAINS      |KS34 260755Z AUTO 00000KT 1SM 00/M02 A3015 RMK AO1 T00001021
TWIN BRIDGES|K7S1 260755Z AUTO 00000KT 7SM M01/M03 A3007 RMK AO1 T10101032
SCOBEY      |K9S2 260755Z AUTO 00000KT 7SM M10/M14 A3017 RMK AO1 T10991143






000
SXUS55 KMSO 260803
OSOMSO
MONTANA AWOS SUMMARY
NATIONAL WEATHER SERVICE MISSOULA MT
202 AM MDT WED NOV 26 2014

Montana AWOS Reports

LAUREL      |K6S8 260755Z AUTO 1SM M02/M06 A3015 RMK AO1 T10211060






000
SXUS55 KMSO 260743
OSOMSO
MONTANA AWOS SUMMARY
NATIONAL WEATHER SERVICE MISSOULA MT
143 AM MDT WED NOV 26 2014

Montana AWOS Reports

LAUREL      |K6S8 260735Z AUTO 00000KT 3/4SM M02/M06 A3016 RMK AO1 T10161055






000
SXUS55 KMSO 260723
OSOMSO
MONTANA AWOS SUMMARY
NATIONAL WEATHER SERVICE MISSOULA MT
122 AM MDT WED NOV 26 2014

Montana AWOS Reports

LAUREL      |K6S8 260715Z AUTO 00000KT 1 1/4SM M02/M06 A3015 RMK AO1 T10161055






000
SXUS55 KMSO 260704
OSOMSO
MONTANA AWOS SUMMARY
NATIONAL WEATHER SERVICE MISSOULA MT
103 AM MDT WED NOV 26 2014

Montana AWOS Reports

SCOBEY      |K9S2 260655Z AUTO 32004KT 4SM M10/M14 A3016 RMK AO1 T10991143
PLAINS      |KS34 260655Z AUTO 00000KT 1SM 00/M02 A3016 RMK AO1 T00001021
LAUREL      |K6S8 260655Z AUTO 00000KT 1SM M02/M06 A3015 RMK AO1 T10161060
TWIN BRIDGES|K7S1 260655Z AUTO 35004KT 1 3/4SM M01/M03 A3008 RMK AO1 T10101032
MALTA       |KM75 260655Z AUTO 00000KT 25SM M03/M07 A3016 RMK AO1 T10321071






000
SXUS55 KMSO 260643
OSOMSO
MONTANA AWOS SUMMARY
NATIONAL WEATHER SERVICE MISSOULA MT
1243 AM MDT WED NOV 26 2014

Montana AWOS Reports

LAUREL      |K6S8 260635Z AUTO 00000KT 1 1/4SM M01/M06 A3015 RMK AO1 T10101060






000
SXUS55 KMSO 260623
OSOMSO
MONTANA AWOS SUMMARY
NATIONAL WEATHER SERVICE MISSOULA MT
1223 AM MDT WED NOV 26 2014

Montana AWOS Reports

MALTA       |KM75 260555Z AUTO 09004KT 40SM M03/M07 A3015 RMK AO1 T10321071
LAUREL      |K6S8 260615Z AUTO 00000KT 2SM M01/M07 A3014 RMK AO1 T10051066






000
SXUS55 KMSO 260603
OSOMSO
MONTANA AWOS SUMMARY
NATIONAL WEATHER SERVICE MISSOULA MT
1203 AM MDT WED NOV 26 2014

Montana AWOS Reports

LAUREL      |K6S8 260555Z AUTO 00000KT 10SM 00/M08 A3014 RMK AO1 T00001082
SCOBEY      |K9S2 260555Z AUTO 33006KT 15SM M09/M14 A3016 RMK AO1 T10931138
TWIN BRIDGES|K7S1 260555Z AUTO 34007KT 1 3/4SM M01/M03 A3008 RMK AO1 T10101032






000
SXUS55 KMSO 260553
OSOMSO
MONTANA AWOS SUMMARY
NATIONAL WEATHER SERVICE MISSOULA MT
1153 PM MDT TUE NOV 25 2014

Montana AWOS Reports

LAUREL      |K6S8 260535Z AUTO 00000KT 40SM 01/M08 A3014 RMK AO1 T00061082






000
SXUS55 KMSO 260523
OSOMSO
MONTANA AWOS SUMMARY
NATIONAL WEATHER SERVICE MISSOULA MT
1123 PM MDT TUE NOV 25 2014

Montana AWOS Reports

LAUREL      |K6S8 260515Z AUTO 00000KT 15SM 01/M08 A3013 RMK AO1 T00111082






    US Dept of Commerce
    National Oceanic and Atmospheric Administration
    National Weather Service
    1325 East West Highway
    Silver Spring, MD 20910
    Page Author: NWS Internet Services Team
Disclaimer
Information Quality
Credits
Glossary
Privacy Policy
Freedom of Information Act (FOIA)
About Us
Career Opportunities